<?xml version="1.0" encoding="UTF-8" standalone="no" ?>
<gpx xmlns="http://www.topografix.com/GPX/1/1" xmlns:xsi="http://www.w3.org/2001/XMLSchema-instance" xsi:schemaLocation="http://www.topografix.com/GPX/1/1 http://www.topografix.com/GPX/1/1/gpx.xsd" version="1.1" creator="VisuGPX - https://www.visugpx.com">
  <metadata>
    <name>Course à pied le midi</name>
  </metadata>
  <trk>
    <name><![CDATA[Course à pied le midi_1]]></name>
    <trkseg>
      <trkpt lat="48.19422" lon="5.93792">
        <ele>370.1</ele>
        <time>2024-02-21T10:26:09Z</time>
      </trkpt>
      <trkpt lat="48.19411" lon="5.93768">
        <ele>370.9</ele>
        <time>2024-02-21T10:26:19Z</time>
      </trkpt>
      <trkpt lat="48.19397" lon="5.93746">
        <ele>371.7</ele>
        <time>2024-02-21T10:26:27Z</time>
      </trkpt>
      <trkpt lat="48.19385" lon="5.93724">
        <ele>372.4</ele>
        <time>2024-02-21T10:26:35Z</time>
      </trkpt>
      <trkpt lat="48.19373" lon="5.93703">
        <ele>373.1</ele>
        <time>2024-02-21T10:26:43Z</time>
      </trkpt>
      <trkpt lat="48.19362" lon="5.9368">
        <ele>373.9</ele>
        <time>2024-02-21T10:26:52Z</time>
      </trkpt>
      <trkpt lat="48.1935" lon="5.93658">
        <ele>374.7</ele>
        <time>2024-02-21T10:27:00Z</time>
      </trkpt>
      <trkpt lat="48.19338" lon="5.93635">
        <ele>375.4</ele>
        <time>2024-02-21T10:27:08Z</time>
      </trkpt>
      <trkpt lat="48.19325" lon="5.93612">
        <ele>376.1</ele>
        <time>2024-02-21T10:27:17Z</time>
      </trkpt>
      <trkpt lat="48.19314" lon="5.93589">
        <ele>376.5</ele>
        <time>2024-02-21T10:27:24Z</time>
      </trkpt>
      <trkpt lat="48.19304" lon="5.93564">
        <ele>376.8</ele>
        <time>2024-02-21T10:27:31Z</time>
      </trkpt>
      <trkpt lat="48.19293" lon="5.93538">
        <ele>377.5</ele>
        <time>2024-02-21T10:27:39Z</time>
      </trkpt>
      <trkpt lat="48.19291" lon="5.93511">
        <ele>378.3</ele>
        <time>2024-02-21T10:27:47Z</time>
      </trkpt>
      <trkpt lat="48.19282" lon="5.93498">
        <ele>379.1</ele>
        <time>2024-02-21T10:27:53Z</time>
      </trkpt>
      <trkpt lat="48.19265" lon="5.93502">
        <ele>380.2</ele>
        <time>2024-02-21T10:28:01Z</time>
      </trkpt>
      <trkpt lat="48.19248" lon="5.93491">
        <ele>380.7</ele>
        <time>2024-02-21T10:28:08Z</time>
      </trkpt>
      <trkpt lat="48.19234" lon="5.93473">
        <ele>380.8</ele>
        <time>2024-02-21T10:28:17Z</time>
      </trkpt>
      <trkpt lat="48.19228" lon="5.93445">
        <ele>380.8</ele>
        <time>2024-02-21T10:28:26Z</time>
      </trkpt>
      <trkpt lat="48.19223" lon="5.93419">
        <ele>381</ele>
        <time>2024-02-21T10:28:34Z</time>
      </trkpt>
      <trkpt lat="48.19211" lon="5.93397">
        <ele>381.3</ele>
        <time>2024-02-21T10:28:41Z</time>
      </trkpt>
      <trkpt lat="48.19199" lon="5.93374">
        <ele>381.5</ele>
        <time>2024-02-21T10:28:48Z</time>
      </trkpt>
      <trkpt lat="48.19183" lon="5.93354">
        <ele>381.3</ele>
        <time>2024-02-21T10:28:55Z</time>
      </trkpt>
      <trkpt lat="48.19166" lon="5.93336">
        <ele>381</ele>
        <time>2024-02-21T10:29:01Z</time>
      </trkpt>
      <trkpt lat="48.1915" lon="5.93319">
        <ele>380.6</ele>
        <time>2024-02-21T10:29:07Z</time>
      </trkpt>
      <trkpt lat="48.19132" lon="5.93307">
        <ele>380.7</ele>
        <time>2024-02-21T10:29:13Z</time>
      </trkpt>
      <trkpt lat="48.19113" lon="5.93302">
        <ele>381</ele>
        <time>2024-02-21T10:29:20Z</time>
      </trkpt>
      <trkpt lat="48.19097" lon="5.93291">
        <ele>381.6</ele>
        <time>2024-02-21T10:29:26Z</time>
      </trkpt>
      <trkpt lat="48.1908" lon="5.9327">
        <ele>381.2</ele>
        <time>2024-02-21T10:29:32Z</time>
      </trkpt>
      <trkpt lat="48.1907" lon="5.93246">
        <ele>380</ele>
        <time>2024-02-21T10:29:36Z</time>
      </trkpt>
      <trkpt lat="48.19064" lon="5.93219">
        <ele>378.6</ele>
        <time>2024-02-21T10:29:42Z</time>
      </trkpt>
      <trkpt lat="48.19056" lon="5.93195">
        <ele>378.4</ele>
        <time>2024-02-21T10:29:49Z</time>
      </trkpt>
      <trkpt lat="48.19051" lon="5.93178">
        <ele>378.4</ele>
        <time>2024-02-21T10:29:55Z</time>
      </trkpt>
      <trkpt lat="48.19031" lon="5.9317">
        <ele>378</ele>
        <time>2024-02-21T10:30:03Z</time>
      </trkpt>
      <trkpt lat="48.19013" lon="5.93159">
        <ele>377.4</ele>
        <time>2024-02-21T10:30:09Z</time>
      </trkpt>
      <trkpt lat="48.18994" lon="5.93151">
        <ele>376.7</ele>
        <time>2024-02-21T10:30:16Z</time>
      </trkpt>
      <trkpt lat="48.18975" lon="5.93138">
        <ele>376.1</ele>
        <time>2024-02-21T10:30:23Z</time>
      </trkpt>
      <trkpt lat="48.18957" lon="5.9314">
        <ele>375.3</ele>
        <time>2024-02-21T10:30:29Z</time>
      </trkpt>
      <trkpt lat="48.18937" lon="5.93137">
        <ele>374.6</ele>
        <time>2024-02-21T10:30:36Z</time>
      </trkpt>
      <trkpt lat="48.1892" lon="5.93122">
        <ele>374</ele>
        <time>2024-02-21T10:30:42Z</time>
      </trkpt>
      <trkpt lat="48.18911" lon="5.93098">
        <ele>373.7</ele>
        <time>2024-02-21T10:30:49Z</time>
      </trkpt>
      <trkpt lat="48.18901" lon="5.93074">
        <ele>373.9</ele>
        <time>2024-02-21T10:30:57Z</time>
      </trkpt>
      <trkpt lat="48.1889" lon="5.93051">
        <ele>374.3</ele>
        <time>2024-02-21T10:31:04Z</time>
      </trkpt>
      <trkpt lat="48.18879" lon="5.93024">
        <ele>374.7</ele>
        <time>2024-02-21T10:31:11Z</time>
      </trkpt>
      <trkpt lat="48.18871" lon="5.92998">
        <ele>375.1</ele>
        <time>2024-02-21T10:31:18Z</time>
      </trkpt>
      <trkpt lat="48.18867" lon="5.92968">
        <ele>375.5</ele>
        <time>2024-02-21T10:31:25Z</time>
      </trkpt>
      <trkpt lat="48.18864" lon="5.92939">
        <ele>376</ele>
        <time>2024-02-21T10:31:32Z</time>
      </trkpt>
      <trkpt lat="48.18856" lon="5.92913">
        <ele>376.5</ele>
        <time>2024-02-21T10:31:39Z</time>
      </trkpt>
      <trkpt lat="48.18847" lon="5.92886">
        <ele>376.9</ele>
        <time>2024-02-21T10:31:46Z</time>
      </trkpt>
      <trkpt lat="48.18837" lon="5.92862">
        <ele>377.3</ele>
        <time>2024-02-21T10:31:52Z</time>
      </trkpt>
      <trkpt lat="48.18826" lon="5.92838">
        <ele>377.8</ele>
        <time>2024-02-21T10:31:59Z</time>
      </trkpt>
      <trkpt lat="48.18814" lon="5.92817">
        <ele>378.2</ele>
        <time>2024-02-21T10:32:06Z</time>
      </trkpt>
      <trkpt lat="48.18801" lon="5.92799">
        <ele>378.5</ele>
        <time>2024-02-21T10:32:12Z</time>
      </trkpt>
      <trkpt lat="48.18785" lon="5.92777">
        <ele>378.8</ele>
        <time>2024-02-21T10:32:18Z</time>
      </trkpt>
      <trkpt lat="48.18769" lon="5.92761">
        <ele>378.9</ele>
        <time>2024-02-21T10:32:25Z</time>
      </trkpt>
      <trkpt lat="48.18757" lon="5.92739">
        <ele>379</ele>
        <time>2024-02-21T10:32:32Z</time>
      </trkpt>
      <trkpt lat="48.18754" lon="5.92711">
        <ele>379.2</ele>
        <time>2024-02-21T10:32:39Z</time>
      </trkpt>
      <trkpt lat="48.18738" lon="5.92692">
        <ele>379.6</ele>
        <time>2024-02-21T10:32:45Z</time>
      </trkpt>
      <trkpt lat="48.18724" lon="5.92671">
        <ele>380</ele>
        <time>2024-02-21T10:32:51Z</time>
      </trkpt>
      <trkpt lat="48.18712" lon="5.9265">
        <ele>380.2</ele>
        <time>2024-02-21T10:32:58Z</time>
      </trkpt>
      <trkpt lat="48.18695" lon="5.92633">
        <ele>380.4</ele>
        <time>2024-02-21T10:33:05Z</time>
      </trkpt>
      <trkpt lat="48.1868" lon="5.92616">
        <ele>380.7</ele>
        <time>2024-02-21T10:33:11Z</time>
      </trkpt>
      <trkpt lat="48.18668" lon="5.92593">
        <ele>380.9</ele>
        <time>2024-02-21T10:33:18Z</time>
      </trkpt>
      <trkpt lat="48.1866" lon="5.92566">
        <ele>381.4</ele>
        <time>2024-02-21T10:33:25Z</time>
      </trkpt>
      <trkpt lat="48.18651" lon="5.92542">
        <ele>382.1</ele>
        <time>2024-02-21T10:33:32Z</time>
      </trkpt>
      <trkpt lat="48.18645" lon="5.92514">
        <ele>382.9</ele>
        <time>2024-02-21T10:33:38Z</time>
      </trkpt>
      <trkpt lat="48.1864" lon="5.92486">
        <ele>383.6</ele>
        <time>2024-02-21T10:33:45Z</time>
      </trkpt>
      <trkpt lat="48.18635" lon="5.9246">
        <ele>384.3</ele>
        <time>2024-02-21T10:33:51Z</time>
      </trkpt>
      <trkpt lat="48.18633" lon="5.92432">
        <ele>385.2</ele>
        <time>2024-02-21T10:33:57Z</time>
      </trkpt>
      <trkpt lat="48.18628" lon="5.92406">
        <ele>386.2</ele>
        <time>2024-02-21T10:34:04Z</time>
      </trkpt>
      <trkpt lat="48.1862" lon="5.92381">
        <ele>387.2</ele>
        <time>2024-02-21T10:34:11Z</time>
      </trkpt>
      <trkpt lat="48.18614" lon="5.92355">
        <ele>388.2</ele>
        <time>2024-02-21T10:34:19Z</time>
      </trkpt>
      <trkpt lat="48.18615" lon="5.92326">
        <ele>389.1</ele>
        <time>2024-02-21T10:34:26Z</time>
      </trkpt>
      <trkpt lat="48.18628" lon="5.92306">
        <ele>390.6</ele>
        <time>2024-02-21T10:34:33Z</time>
      </trkpt>
      <trkpt lat="48.18646" lon="5.92313">
        <ele>389.8</ele>
        <time>2024-02-21T10:34:44Z</time>
      </trkpt>
      <trkpt lat="48.18661" lon="5.92332">
        <ele>389.3</ele>
        <time>2024-02-21T10:34:52Z</time>
      </trkpt>
      <trkpt lat="48.18675" lon="5.92352">
        <ele>389</ele>
        <time>2024-02-21T10:34:59Z</time>
      </trkpt>
      <trkpt lat="48.1869" lon="5.9237">
        <ele>388.6</ele>
        <time>2024-02-21T10:35:06Z</time>
      </trkpt>
      <trkpt lat="48.18703" lon="5.92391">
        <ele>388.2</ele>
        <time>2024-02-21T10:35:13Z</time>
      </trkpt>
      <trkpt lat="48.18718" lon="5.92412">
        <ele>387.8</ele>
        <time>2024-02-21T10:35:21Z</time>
      </trkpt>
      <trkpt lat="48.18732" lon="5.92431">
        <ele>387.5</ele>
        <time>2024-02-21T10:35:29Z</time>
      </trkpt>
      <trkpt lat="48.18745" lon="5.92449">
        <ele>387.2</ele>
        <time>2024-02-21T10:35:36Z</time>
      </trkpt>
      <trkpt lat="48.18756" lon="5.92472">
        <ele>386.8</ele>
        <time>2024-02-21T10:35:44Z</time>
      </trkpt>
      <trkpt lat="48.18776" lon="5.92487">
        <ele>386.6</ele>
        <time>2024-02-21T10:35:49Z</time>
      </trkpt>
      <trkpt lat="48.18793" lon="5.92497">
        <ele>386.5</ele>
        <time>2024-02-21T10:35:53Z</time>
      </trkpt>
      <trkpt lat="48.18808" lon="5.92513">
        <ele>386.4</ele>
        <time>2024-02-21T10:35:59Z</time>
      </trkpt>
      <trkpt lat="48.18825" lon="5.92532">
        <ele>386.4</ele>
        <time>2024-02-21T10:36:06Z</time>
      </trkpt>
      <trkpt lat="48.18842" lon="5.92543">
        <ele>386.4</ele>
        <time>2024-02-21T10:36:14Z</time>
      </trkpt>
      <trkpt lat="48.18857" lon="5.9256">
        <ele>386.5</ele>
        <time>2024-02-21T10:36:21Z</time>
      </trkpt>
      <trkpt lat="48.18874" lon="5.92572">
        <ele>386.7</ele>
        <time>2024-02-21T10:36:27Z</time>
      </trkpt>
      <trkpt lat="48.18893" lon="5.92573">
        <ele>387.2</ele>
        <time>2024-02-21T10:36:33Z</time>
      </trkpt>
      <trkpt lat="48.18912" lon="5.92581">
        <ele>387.7</ele>
        <time>2024-02-21T10:36:40Z</time>
      </trkpt>
      <trkpt lat="48.18931" lon="5.92587">
        <ele>388</ele>
        <time>2024-02-21T10:36:48Z</time>
      </trkpt>
      <trkpt lat="48.18948" lon="5.92596">
        <ele>388.4</ele>
        <time>2024-02-21T10:36:55Z</time>
      </trkpt>
      <trkpt lat="48.18968" lon="5.92601">
        <ele>388.9</ele>
        <time>2024-02-21T10:37:02Z</time>
      </trkpt>
      <trkpt lat="48.18987" lon="5.92611">
        <ele>389.1</ele>
        <time>2024-02-21T10:37:09Z</time>
      </trkpt>
      <trkpt lat="48.19004" lon="5.92624">
        <ele>389.2</ele>
        <time>2024-02-21T10:37:16Z</time>
      </trkpt>
      <trkpt lat="48.19021" lon="5.92635">
        <ele>389.2</ele>
        <time>2024-02-21T10:37:23Z</time>
      </trkpt>
      <trkpt lat="48.19041" lon="5.92644">
        <ele>389.2</ele>
        <time>2024-02-21T10:37:29Z</time>
      </trkpt>
      <trkpt lat="48.19059" lon="5.92654">
        <ele>389</ele>
        <time>2024-02-21T10:37:35Z</time>
      </trkpt>
      <trkpt lat="48.19078" lon="5.92651">
        <ele>388.4</ele>
        <time>2024-02-21T10:37:42Z</time>
      </trkpt>
      <trkpt lat="48.19096" lon="5.92655">
        <ele>387.2</ele>
        <time>2024-02-21T10:37:50Z</time>
      </trkpt>
      <trkpt lat="48.19116" lon="5.92654">
        <ele>385.2</ele>
        <time>2024-02-21T10:37:56Z</time>
      </trkpt>
      <trkpt lat="48.19133" lon="5.92659">
        <ele>383.5</ele>
        <time>2024-02-21T10:38:02Z</time>
      </trkpt>
      <trkpt lat="48.19147" lon="5.92683">
        <ele>382.5</ele>
        <time>2024-02-21T10:38:09Z</time>
      </trkpt>
      <trkpt lat="48.19155" lon="5.92709">
        <ele>382.2</ele>
        <time>2024-02-21T10:38:15Z</time>
      </trkpt>
      <trkpt lat="48.19163" lon="5.92735">
        <ele>382.1</ele>
        <time>2024-02-21T10:38:21Z</time>
      </trkpt>
      <trkpt lat="48.19171" lon="5.92759">
        <ele>381.5</ele>
        <time>2024-02-21T10:38:26Z</time>
      </trkpt>
      <trkpt lat="48.19179" lon="5.92784">
        <ele>380.4</ele>
        <time>2024-02-21T10:38:32Z</time>
      </trkpt>
      <trkpt lat="48.19186" lon="5.92809">
        <ele>378.9</ele>
        <time>2024-02-21T10:38:38Z</time>
      </trkpt>
      <trkpt lat="48.19193" lon="5.92837">
        <ele>377.5</ele>
        <time>2024-02-21T10:38:44Z</time>
      </trkpt>
      <trkpt lat="48.19198" lon="5.92865">
        <ele>377.8</ele>
        <time>2024-02-21T10:38:50Z</time>
      </trkpt>
      <trkpt lat="48.19198" lon="5.92893">
        <ele>379.4</ele>
        <time>2024-02-21T10:38:57Z</time>
      </trkpt>
      <trkpt lat="48.19183" lon="5.92912">
        <ele>381.5</ele>
        <time>2024-02-21T10:39:06Z</time>
      </trkpt>
      <trkpt lat="48.19164" lon="5.92905">
        <ele>383</ele>
        <time>2024-02-21T10:39:13Z</time>
      </trkpt>
      <trkpt lat="48.19146" lon="5.92896">
        <ele>384.1</ele>
        <time>2024-02-21T10:39:19Z</time>
      </trkpt>
      <trkpt lat="48.19124" lon="5.92894">
        <ele>384.9</ele>
        <time>2024-02-21T10:39:26Z</time>
      </trkpt>
      <trkpt lat="48.19108" lon="5.92905">
        <ele>384.8</ele>
        <time>2024-02-21T10:39:33Z</time>
      </trkpt>
      <trkpt lat="48.19098" lon="5.9293">
        <ele>384.2</ele>
        <time>2024-02-21T10:39:41Z</time>
      </trkpt>
      <trkpt lat="48.1909" lon="5.92956">
        <ele>383.4</ele>
        <time>2024-02-21T10:39:48Z</time>
      </trkpt>
      <trkpt lat="48.19084" lon="5.92985">
        <ele>382.6</ele>
        <time>2024-02-21T10:39:55Z</time>
      </trkpt>
      <trkpt lat="48.19088" lon="5.93012">
        <ele>382.3</ele>
        <time>2024-02-21T10:40:02Z</time>
      </trkpt>
      <trkpt lat="48.1909" lon="5.93039">
        <ele>382</ele>
        <time>2024-02-21T10:40:09Z</time>
      </trkpt>
      <trkpt lat="48.19093" lon="5.93069">
        <ele>381.9</ele>
        <time>2024-02-21T10:40:17Z</time>
      </trkpt>
      <trkpt lat="48.19098" lon="5.93096">
        <ele>381.6</ele>
        <time>2024-02-21T10:40:25Z</time>
      </trkpt>
      <trkpt lat="48.19093" lon="5.93123">
        <ele>381</ele>
        <time>2024-02-21T10:40:32Z</time>
      </trkpt>
      <trkpt lat="48.19078" lon="5.93138">
        <ele>380.1</ele>
        <time>2024-02-21T10:40:40Z</time>
      </trkpt>
      <trkpt lat="48.19062" lon="5.93153">
        <ele>379.2</ele>
        <time>2024-02-21T10:40:47Z</time>
      </trkpt>
      <trkpt lat="48.19056" lon="5.93164">
        <ele>378.8</ele>
        <time>2024-02-21T10:40:51Z</time>
      </trkpt>
      <trkpt lat="48.1906" lon="5.93193">
        <ele>378.4</ele>
        <time>2024-02-21T10:40:58Z</time>
      </trkpt>
      <trkpt lat="48.19068" lon="5.93217">
        <ele>378.8</ele>
        <time>2024-02-21T10:41:04Z</time>
      </trkpt>
      <trkpt lat="48.19076" lon="5.93245">
        <ele>380.2</ele>
        <time>2024-02-21T10:41:11Z</time>
      </trkpt>
      <trkpt lat="48.19088" lon="5.93268">
        <ele>381.5</ele>
        <time>2024-02-21T10:41:19Z</time>
      </trkpt>
      <trkpt lat="48.19104" lon="5.93281">
        <ele>381.4</ele>
        <time>2024-02-21T10:41:26Z</time>
      </trkpt>
      <trkpt lat="48.19124" lon="5.93285">
        <ele>380.9</ele>
        <time>2024-02-21T10:41:33Z</time>
      </trkpt>
      <trkpt lat="48.19142" lon="5.93296">
        <ele>380.7</ele>
        <time>2024-02-21T10:41:40Z</time>
      </trkpt>
      <trkpt lat="48.19159" lon="5.9331">
        <ele>380.6</ele>
        <time>2024-02-21T10:41:46Z</time>
      </trkpt>
      <trkpt lat="48.19177" lon="5.93325">
        <ele>381.1</ele>
        <time>2024-02-21T10:41:53Z</time>
      </trkpt>
      <trkpt lat="48.1919" lon="5.93345">
        <ele>381.3</ele>
        <time>2024-02-21T10:42:01Z</time>
      </trkpt>
      <trkpt lat="48.192" lon="5.93369">
        <ele>381.5</ele>
        <time>2024-02-21T10:42:09Z</time>
      </trkpt>
      <trkpt lat="48.19208" lon="5.93396">
        <ele>381.3</ele>
        <time>2024-02-21T10:42:16Z</time>
      </trkpt>
      <trkpt lat="48.19209" lon="5.93423">
        <ele>381</ele>
        <time>2024-02-21T10:42:22Z</time>
      </trkpt>
      <trkpt lat="48.19219" lon="5.93446">
        <ele>380.8</ele>
        <time>2024-02-21T10:42:28Z</time>
      </trkpt>
      <trkpt lat="48.19234" lon="5.93464">
        <ele>380.8</ele>
        <time>2024-02-21T10:42:34Z</time>
      </trkpt>
      <trkpt lat="48.19243" lon="5.93475">
        <ele>380.8</ele>
        <time>2024-02-21T10:42:38Z</time>
      </trkpt>
      <trkpt lat="48.19263" lon="5.93474">
        <ele>380.4</ele>
        <time>2024-02-21T10:42:46Z</time>
      </trkpt>
      <trkpt lat="48.1928" lon="5.93459">
        <ele>378.4</ele>
        <time>2024-02-21T10:42:54Z</time>
      </trkpt>
      <trkpt lat="48.19293" lon="5.93437">
        <ele>378.9</ele>
        <time>2024-02-21T10:43:01Z</time>
      </trkpt>
      <trkpt lat="48.19298" lon="5.93409">
        <ele>379.4</ele>
        <time>2024-02-21T10:43:09Z</time>
      </trkpt>
      <trkpt lat="48.19302" lon="5.9338">
        <ele>379.5</ele>
        <time>2024-02-21T10:43:17Z</time>
      </trkpt>
      <trkpt lat="48.193" lon="5.93353">
        <ele>380.4</ele>
        <time>2024-02-21T10:43:24Z</time>
      </trkpt>
      <trkpt lat="48.19295" lon="5.93326">
        <ele>381.2</ele>
        <time>2024-02-21T10:43:31Z</time>
      </trkpt>
      <trkpt lat="48.19292" lon="5.93297">
        <ele>381.4</ele>
        <time>2024-02-21T10:43:39Z</time>
      </trkpt>
      <trkpt lat="48.19294" lon="5.9327">
        <ele>379.9</ele>
        <time>2024-02-21T10:43:46Z</time>
      </trkpt>
      <trkpt lat="48.19294" lon="5.9324">
        <ele>379.2</ele>
        <time>2024-02-21T10:43:53Z</time>
      </trkpt>
      <trkpt lat="48.19302" lon="5.93211">
        <ele>376.6</ele>
        <time>2024-02-21T10:44:00Z</time>
      </trkpt>
      <trkpt lat="48.19314" lon="5.93183">
        <ele>373.4</ele>
        <time>2024-02-21T10:44:06Z</time>
      </trkpt>
      <trkpt lat="48.19326" lon="5.93158">
        <ele>371.9</ele>
        <time>2024-02-21T10:44:12Z</time>
      </trkpt>
      <trkpt lat="48.19343" lon="5.93143">
        <ele>370.2</ele>
        <time>2024-02-21T10:44:19Z</time>
      </trkpt>
      <trkpt lat="48.1935" lon="5.93148">
        <ele>369.7</ele>
        <time>2024-02-21T10:44:24Z</time>
      </trkpt>
      <trkpt lat="48.19365" lon="5.93131">
        <ele>368.6</ele>
        <time>2024-02-21T10:44:31Z</time>
      </trkpt>
      <trkpt lat="48.1938" lon="5.93112">
        <ele>367.3</ele>
        <time>2024-02-21T10:44:38Z</time>
      </trkpt>
      <trkpt lat="48.19392" lon="5.93136">
        <ele>366.5</ele>
        <time>2024-02-21T10:44:45Z</time>
      </trkpt>
      <trkpt lat="48.19407" lon="5.93154">
        <ele>365.1</ele>
        <time>2024-02-21T10:44:51Z</time>
      </trkpt>
      <trkpt lat="48.19422" lon="5.93174">
        <ele>364</ele>
        <time>2024-02-21T10:44:57Z</time>
      </trkpt>
      <trkpt lat="48.19437" lon="5.9319">
        <ele>363.2</ele>
        <time>2024-02-21T10:45:02Z</time>
      </trkpt>
      <trkpt lat="48.19456" lon="5.932">
        <ele>362.9</ele>
        <time>2024-02-21T10:45:08Z</time>
      </trkpt>
      <trkpt lat="48.19477" lon="5.93208">
        <ele>362.6</ele>
        <time>2024-02-21T10:45:14Z</time>
      </trkpt>
      <trkpt lat="48.19495" lon="5.93219">
        <ele>361.9</ele>
        <time>2024-02-21T10:45:20Z</time>
      </trkpt>
      <trkpt lat="48.19501" lon="5.93245">
        <ele>360.9</ele>
        <time>2024-02-21T10:45:26Z</time>
      </trkpt>
      <trkpt lat="48.19511" lon="5.9327">
        <ele>360.1</ele>
        <time>2024-02-21T10:45:33Z</time>
      </trkpt>
      <trkpt lat="48.19524" lon="5.93291">
        <ele>359.6</ele>
        <time>2024-02-21T10:45:40Z</time>
      </trkpt>
      <trkpt lat="48.19526" lon="5.93301">
        <ele>359.3</ele>
        <time>2024-02-21T10:45:43Z</time>
      </trkpt>
      <trkpt lat="48.19516" lon="5.93327">
        <ele>359</ele>
        <time>2024-02-21T10:45:49Z</time>
      </trkpt>
      <trkpt lat="48.19502" lon="5.93349">
        <ele>359</ele>
        <time>2024-02-21T10:45:55Z</time>
      </trkpt>
      <trkpt lat="48.19491" lon="5.9337">
        <ele>359.1</ele>
        <time>2024-02-21T10:46:01Z</time>
      </trkpt>
      <trkpt lat="48.19478" lon="5.93389">
        <ele>359.2</ele>
        <time>2024-02-21T10:46:09Z</time>
      </trkpt>
      <trkpt lat="48.19475" lon="5.93391">
        <ele>359.2</ele>
        <time>2024-02-21T10:46:11Z</time>
      </trkpt>
      <trkpt lat="48.19465" lon="5.93387">
        <ele>359.2</ele>
        <time>2024-02-21T10:46:32Z</time>
      </trkpt>
      <trkpt lat="48.19464" lon="5.93387">
        <ele>359.2</ele>
        <time>2024-02-21T10:46:33Z</time>
      </trkpt>
      <trkpt lat="48.19449" lon="5.93404">
        <ele>359.2</ele>
        <time>2024-02-21T10:46:44Z</time>
      </trkpt>
      <trkpt lat="48.19433" lon="5.93422">
        <ele>359.3</ele>
        <time>2024-02-21T10:46:53Z</time>
      </trkpt>
      <trkpt lat="48.19426" lon="5.93427">
        <ele>359.3</ele>
        <time>2024-02-21T10:47:00Z</time>
      </trkpt>
      <trkpt lat="48.1943" lon="5.93419">
        <ele>359.2</ele>
        <time>2024-02-21T10:47:04Z</time>
      </trkpt>
      <trkpt lat="48.19443" lon="5.934">
        <ele>359.2</ele>
        <time>2024-02-21T10:47:14Z</time>
      </trkpt>
      <trkpt lat="48.1946" lon="5.93388">
        <ele>359.2</ele>
        <time>2024-02-21T10:47:30Z</time>
      </trkpt>
      <trkpt lat="48.19475" lon="5.93372">
        <ele>359.1</ele>
        <time>2024-02-21T10:47:46Z</time>
      </trkpt>
      <trkpt lat="48.1949" lon="5.93355">
        <ele>359</ele>
        <time>2024-02-21T10:47:56Z</time>
      </trkpt>
      <trkpt lat="48.19506" lon="5.93334">
        <ele>359</ele>
        <time>2024-02-21T10:48:02Z</time>
      </trkpt>
      <trkpt lat="48.19521" lon="5.93316">
        <ele>358.9</ele>
        <time>2024-02-21T10:48:06Z</time>
      </trkpt>
      <trkpt lat="48.19529" lon="5.93309">
        <ele>358.9</ele>
        <time>2024-02-21T10:48:11Z</time>
      </trkpt>
      <trkpt lat="48.19513" lon="5.93325">
        <ele>359</ele>
        <time>2024-02-21T10:48:19Z</time>
      </trkpt>
      <trkpt lat="48.19498" lon="5.93341">
        <ele>359</ele>
        <time>2024-02-21T10:48:25Z</time>
      </trkpt>
      <trkpt lat="48.19483" lon="5.93357">
        <ele>359.1</ele>
        <time>2024-02-21T10:48:32Z</time>
      </trkpt>
      <trkpt lat="48.19468" lon="5.93372">
        <ele>359.2</ele>
        <time>2024-02-21T10:48:40Z</time>
      </trkpt>
      <trkpt lat="48.19453" lon="5.93392">
        <ele>359.2</ele>
        <time>2024-02-21T10:48:49Z</time>
      </trkpt>
      <trkpt lat="48.1944" lon="5.93411">
        <ele>359.3</ele>
        <time>2024-02-21T10:48:57Z</time>
      </trkpt>
      <trkpt lat="48.19429" lon="5.93423">
        <ele>359.3</ele>
        <time>2024-02-21T10:49:03Z</time>
      </trkpt>
      <trkpt lat="48.19425" lon="5.93418">
        <ele>359.3</ele>
        <time>2024-02-21T10:49:06Z</time>
      </trkpt>
      <trkpt lat="48.19431" lon="5.93409">
        <ele>359.3</ele>
        <time>2024-02-21T10:49:12Z</time>
      </trkpt>
      <trkpt lat="48.19438" lon="5.93408">
        <ele>359.2</ele>
        <time>2024-02-21T10:50:22Z</time>
      </trkpt>
      <trkpt lat="48.19454" lon="5.93392">
        <ele>359.2</ele>
        <time>2024-02-21T10:50:30Z</time>
      </trkpt>
      <trkpt lat="48.19471" lon="5.93373">
        <ele>359.2</ele>
        <time>2024-02-21T10:50:34Z</time>
      </trkpt>
      <trkpt lat="48.1949" lon="5.93352">
        <ele>359</ele>
        <time>2024-02-21T10:50:38Z</time>
      </trkpt>
      <trkpt lat="48.19508" lon="5.9333">
        <ele>359</ele>
        <time>2024-02-21T10:50:42Z</time>
      </trkpt>
      <trkpt lat="48.19525" lon="5.93312">
        <ele>358.9</ele>
        <time>2024-02-21T10:50:47Z</time>
      </trkpt>
      <trkpt lat="48.1953" lon="5.93307">
        <ele>358.9</ele>
        <time>2024-02-21T10:50:53Z</time>
      </trkpt>
      <trkpt lat="48.19526" lon="5.93312">
        <ele>358.9</ele>
        <time>2024-02-21T10:50:57Z</time>
      </trkpt>
      <trkpt lat="48.19511" lon="5.93329">
        <ele>359</ele>
        <time>2024-02-21T10:51:03Z</time>
      </trkpt>
      <trkpt lat="48.19496" lon="5.93346">
        <ele>359</ele>
        <time>2024-02-21T10:51:07Z</time>
      </trkpt>
      <trkpt lat="48.19478" lon="5.93366">
        <ele>359.1</ele>
        <time>2024-02-21T10:51:11Z</time>
      </trkpt>
      <trkpt lat="48.19461" lon="5.93388">
        <ele>359.2</ele>
        <time>2024-02-21T10:51:15Z</time>
      </trkpt>
      <trkpt lat="48.19446" lon="5.93407">
        <ele>359.2</ele>
        <time>2024-02-21T10:51:19Z</time>
      </trkpt>
      <trkpt lat="48.19442" lon="5.93413">
        <ele>359.3</ele>
        <time>2024-02-21T10:51:21Z</time>
      </trkpt>
      <trkpt lat="48.19441" lon="5.93418">
        <ele>359.3</ele>
        <time>2024-02-21T10:51:25Z</time>
      </trkpt>
      <trkpt lat="48.19455" lon="5.93402">
        <ele>359.2</ele>
        <time>2024-02-21T10:51:35Z</time>
      </trkpt>
      <trkpt lat="48.19472" lon="5.93386">
        <ele>359.2</ele>
        <time>2024-02-21T10:51:42Z</time>
      </trkpt>
      <trkpt lat="48.19479" lon="5.93377">
        <ele>359.2</ele>
        <time>2024-02-21T10:51:45Z</time>
      </trkpt>
      <trkpt lat="48.19451" lon="5.93403">
        <ele>359.2</ele>
        <time>2024-02-21T10:53:13Z</time>
      </trkpt>
      <trkpt lat="48.19451" lon="5.93403">
        <ele>359.2</ele>
        <time>2024-02-21T10:53:15Z</time>
      </trkpt>
      <trkpt lat="48.19446" lon="5.93412">
        <ele>359.3</ele>
        <time>2024-02-21T10:53:18Z</time>
      </trkpt>
      <trkpt lat="48.19439" lon="5.93437">
        <ele>359.3</ele>
        <time>2024-02-21T10:53:22Z</time>
      </trkpt>
      <trkpt lat="48.19441" lon="5.93465">
        <ele>359.3</ele>
        <time>2024-02-21T10:53:26Z</time>
      </trkpt>
      <trkpt lat="48.19444" lon="5.93472">
        <ele>359.3</ele>
        <time>2024-02-21T10:53:27Z</time>
      </trkpt>
      <trkpt lat="48.1945" lon="5.93483">
        <ele>359.3</ele>
        <time>2024-02-21T10:53:29Z</time>
      </trkpt>
      <trkpt lat="48.19459" lon="5.93493">
        <ele>359.3</ele>
        <time>2024-02-21T10:53:31Z</time>
      </trkpt>
      <trkpt lat="48.19467" lon="5.93501">
        <ele>359.2</ele>
        <time>2024-02-21T10:53:33Z</time>
      </trkpt>
      <trkpt lat="48.19477" lon="5.93506">
        <ele>359.2</ele>
        <time>2024-02-21T10:53:35Z</time>
      </trkpt>
      <trkpt lat="48.19486" lon="5.93505">
        <ele>359.2</ele>
        <time>2024-02-21T10:53:37Z</time>
      </trkpt>
      <trkpt lat="48.195" lon="5.93497">
        <ele>359.2</ele>
        <time>2024-02-21T10:53:40Z</time>
      </trkpt>
      <trkpt lat="48.19515" lon="5.9348">
        <ele>359.1</ele>
        <time>2024-02-21T10:53:44Z</time>
      </trkpt>
      <trkpt lat="48.19529" lon="5.93462">
        <ele>359.2</ele>
        <time>2024-02-21T10:53:48Z</time>
      </trkpt>
      <trkpt lat="48.19543" lon="5.93445">
        <ele>359.1</ele>
        <time>2024-02-21T10:53:52Z</time>
      </trkpt>
      <trkpt lat="48.1956" lon="5.93423">
        <ele>359</ele>
        <time>2024-02-21T10:53:57Z</time>
      </trkpt>
      <trkpt lat="48.19568" lon="5.93408">
        <ele>359</ele>
        <time>2024-02-21T10:54:00Z</time>
      </trkpt>
      <trkpt lat="48.1957" lon="5.93395">
        <ele>359</ele>
        <time>2024-02-21T10:54:02Z</time>
      </trkpt>
      <trkpt lat="48.19568" lon="5.93368">
        <ele>358.9</ele>
        <time>2024-02-21T10:54:06Z</time>
      </trkpt>
      <trkpt lat="48.19566" lon="5.93362">
        <ele>358.9</ele>
        <time>2024-02-21T10:54:07Z</time>
      </trkpt>
      <trkpt lat="48.19561" lon="5.93352">
        <ele>358.9</ele>
        <time>2024-02-21T10:54:09Z</time>
      </trkpt>
      <trkpt lat="48.19548" lon="5.93332">
        <ele>358.9</ele>
        <time>2024-02-21T10:54:13Z</time>
      </trkpt>
      <trkpt lat="48.1954" lon="5.93326">
        <ele>358.9</ele>
        <time>2024-02-21T10:54:15Z</time>
      </trkpt>
      <trkpt lat="48.19531" lon="5.93323">
        <ele>358.9</ele>
        <time>2024-02-21T10:54:17Z</time>
      </trkpt>
      <trkpt lat="48.19522" lon="5.93325">
        <ele>358.9</ele>
        <time>2024-02-21T10:54:19Z</time>
      </trkpt>
      <trkpt lat="48.19512" lon="5.9333">
        <ele>359</ele>
        <time>2024-02-21T10:54:21Z</time>
      </trkpt>
      <trkpt lat="48.19494" lon="5.93348">
        <ele>359</ele>
        <time>2024-02-21T10:54:25Z</time>
      </trkpt>
      <trkpt lat="48.19478" lon="5.93367">
        <ele>359</ele>
        <time>2024-02-21T10:54:29Z</time>
      </trkpt>
      <trkpt lat="48.19462" lon="5.93385">
        <ele>359.1</ele>
        <time>2024-02-21T10:54:33Z</time>
      </trkpt>
      <trkpt lat="48.19451" lon="5.93399">
        <ele>359.2</ele>
        <time>2024-02-21T10:54:36Z</time>
      </trkpt>
      <trkpt lat="48.19438" lon="5.9342">
        <ele>359.2</ele>
        <time>2024-02-21T10:54:41Z</time>
      </trkpt>
      <trkpt lat="48.19435" lon="5.93422">
        <ele>359.2</ele>
        <time>2024-02-21T10:54:43Z</time>
      </trkpt>
      <trkpt lat="48.19436" lon="5.9342">
        <ele>359.2</ele>
        <time>2024-02-21T10:54:45Z</time>
      </trkpt>
      <trkpt lat="48.1945" lon="5.93402">
        <ele>359.2</ele>
        <time>2024-02-21T10:54:58Z</time>
      </trkpt>
      <trkpt lat="48.19457" lon="5.93398">
        <ele>359.3</ele>
        <time>2024-02-21T10:55:12Z</time>
      </trkpt>
      <trkpt lat="48.19467" lon="5.93387">
        <ele>359.3</ele>
        <time>2024-02-21T10:55:29Z</time>
      </trkpt>
      <trkpt lat="48.19454" lon="5.93403">
        <ele>359.3</ele>
        <time>2024-02-21T10:55:37Z</time>
      </trkpt>
      <trkpt lat="48.19443" lon="5.93427">
        <ele>359.3</ele>
        <time>2024-02-21T10:55:42Z</time>
      </trkpt>
      <trkpt lat="48.1944" lon="5.93443">
        <ele>359.3</ele>
        <time>2024-02-21T10:55:44Z</time>
      </trkpt>
      <trkpt lat="48.19442" lon="5.93458">
        <ele>359.3</ele>
        <time>2024-02-21T10:55:46Z</time>
      </trkpt>
      <trkpt lat="48.19446" lon="5.93472">
        <ele>359.3</ele>
        <time>2024-02-21T10:55:48Z</time>
      </trkpt>
      <trkpt lat="48.19453" lon="5.93483">
        <ele>359.3</ele>
        <time>2024-02-21T10:55:50Z</time>
      </trkpt>
      <trkpt lat="48.19462" lon="5.93492">
        <ele>359.3</ele>
        <time>2024-02-21T10:55:52Z</time>
      </trkpt>
      <trkpt lat="48.19472" lon="5.93496">
        <ele>359.2</ele>
        <time>2024-02-21T10:55:54Z</time>
      </trkpt>
      <trkpt lat="48.19483" lon="5.93497">
        <ele>359.2</ele>
        <time>2024-02-21T10:55:56Z</time>
      </trkpt>
      <trkpt lat="48.19494" lon="5.93491">
        <ele>359.2</ele>
        <time>2024-02-21T10:55:58Z</time>
      </trkpt>
      <trkpt lat="48.19513" lon="5.93472">
        <ele>359.1</ele>
        <time>2024-02-21T10:56:02Z</time>
      </trkpt>
      <trkpt lat="48.1953" lon="5.93452">
        <ele>359.2</ele>
        <time>2024-02-21T10:56:06Z</time>
      </trkpt>
      <trkpt lat="48.19547" lon="5.93434">
        <ele>359.1</ele>
        <time>2024-02-21T10:56:10Z</time>
      </trkpt>
      <trkpt lat="48.19563" lon="5.93415">
        <ele>359</ele>
        <time>2024-02-21T10:56:14Z</time>
      </trkpt>
      <trkpt lat="48.19566" lon="5.9341">
        <ele>359</ele>
        <time>2024-02-21T10:56:15Z</time>
      </trkpt>
      <trkpt lat="48.1957" lon="5.93397">
        <ele>359</ele>
        <time>2024-02-21T10:56:17Z</time>
      </trkpt>
      <trkpt lat="48.19571" lon="5.93382">
        <ele>359</ele>
        <time>2024-02-21T10:56:19Z</time>
      </trkpt>
      <trkpt lat="48.19568" lon="5.93367">
        <ele>358.9</ele>
        <time>2024-02-21T10:56:21Z</time>
      </trkpt>
      <trkpt lat="48.19563" lon="5.93354">
        <ele>358.9</ele>
        <time>2024-02-21T10:56:23Z</time>
      </trkpt>
      <trkpt lat="48.19555" lon="5.93343">
        <ele>358.9</ele>
        <time>2024-02-21T10:56:25Z</time>
      </trkpt>
      <trkpt lat="48.19546" lon="5.93334">
        <ele>358.9</ele>
        <time>2024-02-21T10:56:27Z</time>
      </trkpt>
      <trkpt lat="48.19537" lon="5.93329">
        <ele>358.9</ele>
        <time>2024-02-21T10:56:29Z</time>
      </trkpt>
      <trkpt lat="48.19527" lon="5.93329">
        <ele>358.9</ele>
        <time>2024-02-21T10:56:31Z</time>
      </trkpt>
      <trkpt lat="48.19516" lon="5.93333">
        <ele>358.9</ele>
        <time>2024-02-21T10:56:33Z</time>
      </trkpt>
      <trkpt lat="48.19507" lon="5.93342">
        <ele>359</ele>
        <time>2024-02-21T10:56:35Z</time>
      </trkpt>
      <trkpt lat="48.1949" lon="5.93363">
        <ele>359</ele>
        <time>2024-02-21T10:56:39Z</time>
      </trkpt>
      <trkpt lat="48.19472" lon="5.93383">
        <ele>359.2</ele>
        <time>2024-02-21T10:56:43Z</time>
      </trkpt>
      <trkpt lat="48.19455" lon="5.93404">
        <ele>359.2</ele>
        <time>2024-02-21T10:56:47Z</time>
      </trkpt>
      <trkpt lat="48.19439" lon="5.93422">
        <ele>359.3</ele>
        <time>2024-02-21T10:56:51Z</time>
      </trkpt>
      <trkpt lat="48.19437" lon="5.93426">
        <ele>359.3</ele>
        <time>2024-02-21T10:56:52Z</time>
      </trkpt>
      <trkpt lat="48.19431" lon="5.93424">
        <ele>359.3</ele>
        <time>2024-02-21T10:56:55Z</time>
      </trkpt>
      <trkpt lat="48.19433" lon="5.93418">
        <ele>359.3</ele>
        <time>2024-02-21T10:56:57Z</time>
      </trkpt>
      <trkpt lat="48.19445" lon="5.93406">
        <ele>359.3</ele>
        <time>2024-02-21T10:57:05Z</time>
      </trkpt>
      <trkpt lat="48.19451" lon="5.93402">
        <ele>359.3</ele>
        <time>2024-02-21T10:57:11Z</time>
      </trkpt>
      <trkpt lat="48.19465" lon="5.93383">
        <ele>359.2</ele>
        <time>2024-02-21T10:57:22Z</time>
      </trkpt>
      <trkpt lat="48.19471" lon="5.93371">
        <ele>359.2</ele>
        <time>2024-02-21T10:57:32Z</time>
      </trkpt>
      <trkpt lat="48.19469" lon="5.93375">
        <ele>359.2</ele>
        <time>2024-02-21T10:57:34Z</time>
      </trkpt>
      <trkpt lat="48.19456" lon="5.93395">
        <ele>359.2</ele>
        <time>2024-02-21T10:57:45Z</time>
      </trkpt>
      <trkpt lat="48.19451" lon="5.93404">
        <ele>359.2</ele>
        <time>2024-02-21T10:57:52Z</time>
      </trkpt>
      <trkpt lat="48.1945" lon="5.93405">
        <ele>359.2</ele>
        <time>2024-02-21T10:57:53Z</time>
      </trkpt>
      <trkpt lat="48.19441" lon="5.93429">
        <ele>359.3</ele>
        <time>2024-02-21T10:57:58Z</time>
      </trkpt>
      <trkpt lat="48.1944" lon="5.93456">
        <ele>359.3</ele>
        <time>2024-02-21T10:58:02Z</time>
      </trkpt>
      <trkpt lat="48.19451" lon="5.93485">
        <ele>359.3</ele>
        <time>2024-02-21T10:58:07Z</time>
      </trkpt>
      <trkpt lat="48.1947" lon="5.93501">
        <ele>359.2</ele>
        <time>2024-02-21T10:58:12Z</time>
      </trkpt>
      <trkpt lat="48.19488" lon="5.935">
        <ele>359.2</ele>
        <time>2024-02-21T10:58:16Z</time>
      </trkpt>
      <trkpt lat="48.19505" lon="5.93486">
        <ele>359.1</ele>
        <time>2024-02-21T10:58:20Z</time>
      </trkpt>
      <trkpt lat="48.19521" lon="5.93464">
        <ele>359.2</ele>
        <time>2024-02-21T10:58:25Z</time>
      </trkpt>
      <trkpt lat="48.19537" lon="5.93443">
        <ele>359.1</ele>
        <time>2024-02-21T10:58:30Z</time>
      </trkpt>
      <trkpt lat="48.19555" lon="5.93423">
        <ele>359</ele>
        <time>2024-02-21T10:58:35Z</time>
      </trkpt>
      <trkpt lat="48.19567" lon="5.93395">
        <ele>359</ele>
        <time>2024-02-21T10:58:40Z</time>
      </trkpt>
      <trkpt lat="48.19567" lon="5.93368">
        <ele>358.9</ele>
        <time>2024-02-21T10:58:44Z</time>
      </trkpt>
      <trkpt lat="48.19563" lon="5.93356">
        <ele>358.9</ele>
        <time>2024-02-21T10:58:46Z</time>
      </trkpt>
      <trkpt lat="48.19551" lon="5.93335">
        <ele>358.9</ele>
        <time>2024-02-21T10:58:50Z</time>
      </trkpt>
      <trkpt lat="48.19547" lon="5.9333">
        <ele>358.9</ele>
        <time>2024-02-21T10:58:51Z</time>
      </trkpt>
      <trkpt lat="48.19534" lon="5.9332">
        <ele>358.9</ele>
        <time>2024-02-21T10:58:54Z</time>
      </trkpt>
      <trkpt lat="48.19524" lon="5.93319">
        <ele>358.9</ele>
        <time>2024-02-21T10:58:56Z</time>
      </trkpt>
      <trkpt lat="48.19514" lon="5.93321">
        <ele>358.9</ele>
        <time>2024-02-21T10:58:58Z</time>
      </trkpt>
      <trkpt lat="48.19505" lon="5.93328">
        <ele>359</ele>
        <time>2024-02-21T10:59:00Z</time>
      </trkpt>
      <trkpt lat="48.1949" lon="5.93346">
        <ele>359</ele>
        <time>2024-02-21T10:59:04Z</time>
      </trkpt>
      <trkpt lat="48.19474" lon="5.93363">
        <ele>359.1</ele>
        <time>2024-02-21T10:59:08Z</time>
      </trkpt>
      <trkpt lat="48.19459" lon="5.9338">
        <ele>359.2</ele>
        <time>2024-02-21T10:59:12Z</time>
      </trkpt>
      <trkpt lat="48.19442" lon="5.93401">
        <ele>359.2</ele>
        <time>2024-02-21T10:59:17Z</time>
      </trkpt>
      <trkpt lat="48.19436" lon="5.93409">
        <ele>359.3</ele>
        <time>2024-02-21T10:59:19Z</time>
      </trkpt>
      <trkpt lat="48.19432" lon="5.93421">
        <ele>359.3</ele>
        <time>2024-02-21T10:59:21Z</time>
      </trkpt>
      <trkpt lat="48.19429" lon="5.93439">
        <ele>359.3</ele>
        <time>2024-02-21T10:59:24Z</time>
      </trkpt>
      <trkpt lat="48.19429" lon="5.93451">
        <ele>359.3</ele>
        <time>2024-02-21T10:59:26Z</time>
      </trkpt>
      <trkpt lat="48.19433" lon="5.93464">
        <ele>359.3</ele>
        <time>2024-02-21T10:59:28Z</time>
      </trkpt>
      <trkpt lat="48.19437" lon="5.93475">
        <ele>359.3</ele>
        <time>2024-02-21T10:59:30Z</time>
      </trkpt>
      <trkpt lat="48.19443" lon="5.93485">
        <ele>359.3</ele>
        <time>2024-02-21T10:59:32Z</time>
      </trkpt>
      <trkpt lat="48.1945" lon="5.93492">
        <ele>359.3</ele>
        <time>2024-02-21T10:59:34Z</time>
      </trkpt>
      <trkpt lat="48.19463" lon="5.93499">
        <ele>359.2</ele>
        <time>2024-02-21T10:59:37Z</time>
      </trkpt>
      <trkpt lat="48.19472" lon="5.93499">
        <ele>359.2</ele>
        <time>2024-02-21T10:59:39Z</time>
      </trkpt>
      <trkpt lat="48.19481" lon="5.93495">
        <ele>359.2</ele>
        <time>2024-02-21T10:59:41Z</time>
      </trkpt>
      <trkpt lat="48.19497" lon="5.93479">
        <ele>359.1</ele>
        <time>2024-02-21T10:59:45Z</time>
      </trkpt>
      <trkpt lat="48.19514" lon="5.93457">
        <ele>359.2</ele>
        <time>2024-02-21T10:59:50Z</time>
      </trkpt>
      <trkpt lat="48.19532" lon="5.93437">
        <ele>359.1</ele>
        <time>2024-02-21T10:59:55Z</time>
      </trkpt>
      <trkpt lat="48.19547" lon="5.9342">
        <ele>359</ele>
        <time>2024-02-21T10:59:59Z</time>
      </trkpt>
      <trkpt lat="48.19559" lon="5.93394">
        <ele>359</ele>
        <time>2024-02-21T11:00:04Z</time>
      </trkpt>
      <trkpt lat="48.19557" lon="5.93367">
        <ele>358.9</ele>
        <time>2024-02-21T11:00:08Z</time>
      </trkpt>
      <trkpt lat="48.19548" lon="5.93343">
        <ele>358.9</ele>
        <time>2024-02-21T11:00:12Z</time>
      </trkpt>
      <trkpt lat="48.19531" lon="5.93322">
        <ele>358.9</ele>
        <time>2024-02-21T11:00:17Z</time>
      </trkpt>
      <trkpt lat="48.19514" lon="5.93317">
        <ele>358.9</ele>
        <time>2024-02-21T11:00:21Z</time>
      </trkpt>
      <trkpt lat="48.19506" lon="5.9332">
        <ele>359</ele>
        <time>2024-02-21T11:00:23Z</time>
      </trkpt>
      <trkpt lat="48.19494" lon="5.93331">
        <ele>359</ele>
        <time>2024-02-21T11:00:26Z</time>
      </trkpt>
      <trkpt lat="48.1948" lon="5.93349">
        <ele>359.1</ele>
        <time>2024-02-21T11:00:30Z</time>
      </trkpt>
      <trkpt lat="48.19464" lon="5.93371">
        <ele>359.2</ele>
        <time>2024-02-21T11:00:35Z</time>
      </trkpt>
      <trkpt lat="48.19446" lon="5.93392">
        <ele>359.2</ele>
        <time>2024-02-21T11:00:40Z</time>
      </trkpt>
      <trkpt lat="48.19433" lon="5.9341">
        <ele>359.3</ele>
        <time>2024-02-21T11:00:44Z</time>
      </trkpt>
      <trkpt lat="48.19429" lon="5.93422">
        <ele>359.3</ele>
        <time>2024-02-21T11:00:46Z</time>
      </trkpt>
      <trkpt lat="48.19427" lon="5.93435">
        <ele>359.3</ele>
        <time>2024-02-21T11:00:48Z</time>
      </trkpt>
      <trkpt lat="48.19427" lon="5.93448">
        <ele>359.3</ele>
        <time>2024-02-21T11:00:50Z</time>
      </trkpt>
      <trkpt lat="48.1943" lon="5.93461">
        <ele>359.3</ele>
        <time>2024-02-21T11:00:52Z</time>
      </trkpt>
      <trkpt lat="48.19434" lon="5.93473">
        <ele>359.3</ele>
        <time>2024-02-21T11:00:54Z</time>
      </trkpt>
      <trkpt lat="48.19443" lon="5.93487">
        <ele>359.3</ele>
        <time>2024-02-21T11:00:57Z</time>
      </trkpt>
      <trkpt lat="48.19451" lon="5.93495">
        <ele>359.3</ele>
        <time>2024-02-21T11:00:59Z</time>
      </trkpt>
      <trkpt lat="48.19459" lon="5.93499">
        <ele>359.3</ele>
        <time>2024-02-21T11:01:01Z</time>
      </trkpt>
      <trkpt lat="48.19469" lon="5.935">
        <ele>359.2</ele>
        <time>2024-02-21T11:01:03Z</time>
      </trkpt>
      <trkpt lat="48.19478" lon="5.93497">
        <ele>359.2</ele>
        <time>2024-02-21T11:01:05Z</time>
      </trkpt>
      <trkpt lat="48.19487" lon="5.93491">
        <ele>359.2</ele>
        <time>2024-02-21T11:01:07Z</time>
      </trkpt>
      <trkpt lat="48.19503" lon="5.93474">
        <ele>359.1</ele>
        <time>2024-02-21T11:01:11Z</time>
      </trkpt>
      <trkpt lat="48.19518" lon="5.93456">
        <ele>359.2</ele>
        <time>2024-02-21T11:01:15Z</time>
      </trkpt>
      <trkpt lat="48.19533" lon="5.93439">
        <ele>359.1</ele>
        <time>2024-02-21T11:01:19Z</time>
      </trkpt>
      <trkpt lat="48.19549" lon="5.93417">
        <ele>359</ele>
        <time>2024-02-21T11:01:24Z</time>
      </trkpt>
      <trkpt lat="48.19555" lon="5.93408">
        <ele>359</ele>
        <time>2024-02-21T11:01:26Z</time>
      </trkpt>
      <trkpt lat="48.19559" lon="5.93396">
        <ele>359</ele>
        <time>2024-02-21T11:01:28Z</time>
      </trkpt>
      <trkpt lat="48.1956" lon="5.93383">
        <ele>359</ele>
        <time>2024-02-21T11:01:30Z</time>
      </trkpt>
      <trkpt lat="48.19559" lon="5.9337">
        <ele>358.9</ele>
        <time>2024-02-21T11:01:32Z</time>
      </trkpt>
      <trkpt lat="48.19554" lon="5.9335">
        <ele>358.9</ele>
        <time>2024-02-21T11:01:35Z</time>
      </trkpt>
      <trkpt lat="48.19548" lon="5.93339">
        <ele>358.9</ele>
        <time>2024-02-21T11:01:37Z</time>
      </trkpt>
      <trkpt lat="48.19541" lon="5.93329">
        <ele>358.9</ele>
        <time>2024-02-21T11:01:39Z</time>
      </trkpt>
      <trkpt lat="48.19533" lon="5.93322">
        <ele>358.9</ele>
        <time>2024-02-21T11:01:41Z</time>
      </trkpt>
      <trkpt lat="48.19525" lon="5.93317">
        <ele>358.9</ele>
        <time>2024-02-21T11:01:43Z</time>
      </trkpt>
      <trkpt lat="48.19517" lon="5.93316">
        <ele>358.9</ele>
        <time>2024-02-21T11:01:45Z</time>
      </trkpt>
      <trkpt lat="48.19508" lon="5.93318">
        <ele>359</ele>
        <time>2024-02-21T11:01:47Z</time>
      </trkpt>
      <trkpt lat="48.19499" lon="5.93325">
        <ele>359</ele>
        <time>2024-02-21T11:01:49Z</time>
      </trkpt>
      <trkpt lat="48.19484" lon="5.93344">
        <ele>359.1</ele>
        <time>2024-02-21T11:01:53Z</time>
      </trkpt>
      <trkpt lat="48.19469" lon="5.93363">
        <ele>359.2</ele>
        <time>2024-02-21T11:01:57Z</time>
      </trkpt>
      <trkpt lat="48.19454" lon="5.93382">
        <ele>359.2</ele>
        <time>2024-02-21T11:02:01Z</time>
      </trkpt>
      <trkpt lat="48.19443" lon="5.93396">
        <ele>359.2</ele>
        <time>2024-02-21T11:02:04Z</time>
      </trkpt>
      <trkpt lat="48.19428" lon="5.93416">
        <ele>359.3</ele>
        <time>2024-02-21T11:02:09Z</time>
      </trkpt>
      <trkpt lat="48.19423" lon="5.9342">
        <ele>359.3</ele>
        <time>2024-02-21T11:02:11Z</time>
      </trkpt>
      <trkpt lat="48.19425" lon="5.93413">
        <ele>359.3</ele>
        <time>2024-02-21T11:02:15Z</time>
      </trkpt>
      <trkpt lat="48.19438" lon="5.93395">
        <ele>359.3</ele>
        <time>2024-02-21T11:02:26Z</time>
      </trkpt>
      <trkpt lat="48.19446" lon="5.93386">
        <ele>359.2</ele>
        <time>2024-02-21T11:02:34Z</time>
      </trkpt>
      <trkpt lat="48.19454" lon="5.93383">
        <ele>359.2</ele>
        <time>2024-02-21T11:02:40Z</time>
      </trkpt>
      <trkpt lat="48.19466" lon="5.93367">
        <ele>359.2</ele>
        <time>2024-02-21T11:02:54Z</time>
      </trkpt>
      <trkpt lat="48.19467" lon="5.93366">
        <ele>359.2</ele>
        <time>2024-02-21T11:02:57Z</time>
      </trkpt>
      <trkpt lat="48.19467" lon="5.93366">
        <ele>359.2</ele>
        <time>2024-02-21T11:03:14Z</time>
      </trkpt>
      <trkpt lat="48.19471" lon="5.93363">
        <ele>359.2</ele>
        <time>2024-02-21T11:03:18Z</time>
      </trkpt>
      <trkpt lat="48.19472" lon="5.93363">
        <ele>359.2</ele>
        <time>2024-02-21T11:03:21Z</time>
      </trkpt>
      <trkpt lat="48.19473" lon="5.93358">
        <ele>359.2</ele>
        <time>2024-02-21T11:03:28Z</time>
      </trkpt>
      <trkpt lat="48.19475" lon="5.93354">
        <ele>359.2</ele>
        <time>2024-02-21T11:03:31Z</time>
      </trkpt>
      <trkpt lat="48.19489" lon="5.93336">
        <ele>359.1</ele>
        <time>2024-02-21T11:03:47Z</time>
      </trkpt>
      <trkpt lat="48.19506" lon="5.93321">
        <ele>359</ele>
        <time>2024-02-21T11:04:01Z</time>
      </trkpt>
      <trkpt lat="48.19514" lon="5.93318">
        <ele>359</ele>
        <time>2024-02-21T11:04:05Z</time>
      </trkpt>
      <trkpt lat="48.19515" lon="5.93319">
        <ele>359</ele>
        <time>2024-02-21T11:04:08Z</time>
      </trkpt>
      <trkpt lat="48.19515" lon="5.9332">
        <ele>359</ele>
        <time>2024-02-21T11:04:10Z</time>
      </trkpt>
      <trkpt lat="48.19506" lon="5.93325">
        <ele>359</ele>
        <time>2024-02-21T11:04:13Z</time>
      </trkpt>
      <trkpt lat="48.19489" lon="5.93343">
        <ele>359</ele>
        <time>2024-02-21T11:04:17Z</time>
      </trkpt>
      <trkpt lat="48.19471" lon="5.93366">
        <ele>359.2</ele>
        <time>2024-02-21T11:04:21Z</time>
      </trkpt>
      <trkpt lat="48.19453" lon="5.93386">
        <ele>359.2</ele>
        <time>2024-02-21T11:04:25Z</time>
      </trkpt>
      <trkpt lat="48.19436" lon="5.93408">
        <ele>359.3</ele>
        <time>2024-02-21T11:04:29Z</time>
      </trkpt>
      <trkpt lat="48.19433" lon="5.93414">
        <ele>359.3</ele>
        <time>2024-02-21T11:04:30Z</time>
      </trkpt>
      <trkpt lat="48.19429" lon="5.9343">
        <ele>359.3</ele>
        <time>2024-02-21T11:04:32Z</time>
      </trkpt>
      <trkpt lat="48.19428" lon="5.93446">
        <ele>359.3</ele>
        <time>2024-02-21T11:04:34Z</time>
      </trkpt>
      <trkpt lat="48.19431" lon="5.93461">
        <ele>359.3</ele>
        <time>2024-02-21T11:04:36Z</time>
      </trkpt>
      <trkpt lat="48.1944" lon="5.9348">
        <ele>359.3</ele>
        <time>2024-02-21T11:04:39Z</time>
      </trkpt>
      <trkpt lat="48.19448" lon="5.93489">
        <ele>359.3</ele>
        <time>2024-02-21T11:04:41Z</time>
      </trkpt>
      <trkpt lat="48.19459" lon="5.93495">
        <ele>359.3</ele>
        <time>2024-02-21T11:04:43Z</time>
      </trkpt>
      <trkpt lat="48.19469" lon="5.93496">
        <ele>359.2</ele>
        <time>2024-02-21T11:04:45Z</time>
      </trkpt>
      <trkpt lat="48.1948" lon="5.93493">
        <ele>359.2</ele>
        <time>2024-02-21T11:04:47Z</time>
      </trkpt>
      <trkpt lat="48.19497" lon="5.93474">
        <ele>359.1</ele>
        <time>2024-02-21T11:04:51Z</time>
      </trkpt>
      <trkpt lat="48.19514" lon="5.93452">
        <ele>359.2</ele>
        <time>2024-02-21T11:04:55Z</time>
      </trkpt>
      <trkpt lat="48.19531" lon="5.93431">
        <ele>359.1</ele>
        <time>2024-02-21T11:04:59Z</time>
      </trkpt>
      <trkpt lat="48.19547" lon="5.9341">
        <ele>359</ele>
        <time>2024-02-21T11:05:03Z</time>
      </trkpt>
      <trkpt lat="48.19551" lon="5.93404">
        <ele>359</ele>
        <time>2024-02-21T11:05:04Z</time>
      </trkpt>
      <trkpt lat="48.19556" lon="5.93391">
        <ele>359</ele>
        <time>2024-02-21T11:05:06Z</time>
      </trkpt>
      <trkpt lat="48.19558" lon="5.93375">
        <ele>358.9</ele>
        <time>2024-02-21T11:05:08Z</time>
      </trkpt>
      <trkpt lat="48.19555" lon="5.93361">
        <ele>358.9</ele>
        <time>2024-02-21T11:05:10Z</time>
      </trkpt>
      <trkpt lat="48.1955" lon="5.93347">
        <ele>358.9</ele>
        <time>2024-02-21T11:05:12Z</time>
      </trkpt>
      <trkpt lat="48.19544" lon="5.93336">
        <ele>358.9</ele>
        <time>2024-02-21T11:05:14Z</time>
      </trkpt>
      <trkpt lat="48.19531" lon="5.93323">
        <ele>358.9</ele>
        <time>2024-02-21T11:05:17Z</time>
      </trkpt>
      <trkpt lat="48.19521" lon="5.93318">
        <ele>358.9</ele>
        <time>2024-02-21T11:05:19Z</time>
      </trkpt>
      <trkpt lat="48.19511" lon="5.93318">
        <ele>359</ele>
        <time>2024-02-21T11:05:21Z</time>
      </trkpt>
      <trkpt lat="48.19502" lon="5.93324">
        <ele>359</ele>
        <time>2024-02-21T11:05:23Z</time>
      </trkpt>
      <trkpt lat="48.19485" lon="5.93345">
        <ele>359.1</ele>
        <time>2024-02-21T11:05:27Z</time>
      </trkpt>
      <trkpt lat="48.19468" lon="5.93367">
        <ele>359.2</ele>
        <time>2024-02-21T11:05:31Z</time>
      </trkpt>
      <trkpt lat="48.19452" lon="5.93389">
        <ele>359.2</ele>
        <time>2024-02-21T11:05:35Z</time>
      </trkpt>
      <trkpt lat="48.19444" lon="5.934">
        <ele>359.2</ele>
        <time>2024-02-21T11:05:37Z</time>
      </trkpt>
      <trkpt lat="48.1943" lon="5.93417">
        <ele>359.3</ele>
        <time>2024-02-21T11:05:41Z</time>
      </trkpt>
      <trkpt lat="48.19424" lon="5.93417">
        <ele>359.3</ele>
        <time>2024-02-21T11:05:44Z</time>
      </trkpt>
      <trkpt lat="48.19429" lon="5.93407">
        <ele>359.2</ele>
        <time>2024-02-21T11:05:51Z</time>
      </trkpt>
      <trkpt lat="48.19434" lon="5.93407">
        <ele>359.2</ele>
        <time>2024-02-21T11:05:54Z</time>
      </trkpt>
      <trkpt lat="48.19436" lon="5.93406">
        <ele>359.2</ele>
        <time>2024-02-21T11:05:57Z</time>
      </trkpt>
      <trkpt lat="48.19438" lon="5.93399">
        <ele>359.2</ele>
        <time>2024-02-21T11:06:01Z</time>
      </trkpt>
      <trkpt lat="48.19451" lon="5.93379">
        <ele>359.2</ele>
        <time>2024-02-21T11:06:16Z</time>
      </trkpt>
      <trkpt lat="48.19466" lon="5.93362">
        <ele>359.1</ele>
        <time>2024-02-21T11:06:27Z</time>
      </trkpt>
      <trkpt lat="48.19481" lon="5.93345">
        <ele>359</ele>
        <time>2024-02-21T11:06:34Z</time>
      </trkpt>
      <trkpt lat="48.19496" lon="5.93329">
        <ele>359</ele>
        <time>2024-02-21T11:06:40Z</time>
      </trkpt>
      <trkpt lat="48.19513" lon="5.93317">
        <ele>359</ele>
        <time>2024-02-21T11:06:47Z</time>
      </trkpt>
      <trkpt lat="48.19516" lon="5.93317">
        <ele>359</ele>
        <time>2024-02-21T11:06:50Z</time>
      </trkpt>
      <trkpt lat="48.19516" lon="5.93317">
        <ele>359</ele>
        <time>2024-02-21T11:06:51Z</time>
      </trkpt>
      <trkpt lat="48.19497" lon="5.93332">
        <ele>359</ele>
        <time>2024-02-21T11:06:57Z</time>
      </trkpt>
      <trkpt lat="48.19481" lon="5.93351">
        <ele>359.1</ele>
        <time>2024-02-21T11:07:01Z</time>
      </trkpt>
      <trkpt lat="48.19466" lon="5.93369">
        <ele>359.2</ele>
        <time>2024-02-21T11:07:05Z</time>
      </trkpt>
      <trkpt lat="48.19451" lon="5.93386">
        <ele>359.2</ele>
        <time>2024-02-21T11:07:09Z</time>
      </trkpt>
      <trkpt lat="48.19437" lon="5.93403">
        <ele>359.3</ele>
        <time>2024-02-21T11:07:13Z</time>
      </trkpt>
      <trkpt lat="48.19427" lon="5.93427">
        <ele>359.3</ele>
        <time>2024-02-21T11:07:17Z</time>
      </trkpt>
      <trkpt lat="48.19428" lon="5.93455">
        <ele>359.3</ele>
        <time>2024-02-21T11:07:21Z</time>
      </trkpt>
      <trkpt lat="48.19437" lon="5.9348">
        <ele>359.3</ele>
        <time>2024-02-21T11:07:25Z</time>
      </trkpt>
      <trkpt lat="48.19452" lon="5.93497">
        <ele>359.3</ele>
        <time>2024-02-21T11:07:29Z</time>
      </trkpt>
      <trkpt lat="48.19471" lon="5.935">
        <ele>359.2</ele>
        <time>2024-02-21T11:07:33Z</time>
      </trkpt>
      <trkpt lat="48.19488" lon="5.93488">
        <ele>359.2</ele>
        <time>2024-02-21T11:07:37Z</time>
      </trkpt>
      <trkpt lat="48.19504" lon="5.93469">
        <ele>359.1</ele>
        <time>2024-02-21T11:07:41Z</time>
      </trkpt>
      <trkpt lat="48.1952" lon="5.9345">
        <ele>359.2</ele>
        <time>2024-02-21T11:07:45Z</time>
      </trkpt>
      <trkpt lat="48.19536" lon="5.93433">
        <ele>359.1</ele>
        <time>2024-02-21T11:07:49Z</time>
      </trkpt>
      <trkpt lat="48.19551" lon="5.93414">
        <ele>359</ele>
        <time>2024-02-21T11:07:53Z</time>
      </trkpt>
      <trkpt lat="48.19554" lon="5.93408">
        <ele>359</ele>
        <time>2024-02-21T11:07:54Z</time>
      </trkpt>
      <trkpt lat="48.1956" lon="5.93388">
        <ele>359</ele>
        <time>2024-02-21T11:07:57Z</time>
      </trkpt>
      <trkpt lat="48.19559" lon="5.93373">
        <ele>358.9</ele>
        <time>2024-02-21T11:07:59Z</time>
      </trkpt>
      <trkpt lat="48.19554" lon="5.93353">
        <ele>358.9</ele>
        <time>2024-02-21T11:08:02Z</time>
      </trkpt>
      <trkpt lat="48.19549" lon="5.9334">
        <ele>358.9</ele>
        <time>2024-02-21T11:08:04Z</time>
      </trkpt>
      <trkpt lat="48.19543" lon="5.9333">
        <ele>358.9</ele>
        <time>2024-02-21T11:08:06Z</time>
      </trkpt>
      <trkpt lat="48.19535" lon="5.93322">
        <ele>358.9</ele>
        <time>2024-02-21T11:08:08Z</time>
      </trkpt>
      <trkpt lat="48.19527" lon="5.93316">
        <ele>358.9</ele>
        <time>2024-02-21T11:08:10Z</time>
      </trkpt>
      <trkpt lat="48.19518" lon="5.93315">
        <ele>358.9</ele>
        <time>2024-02-21T11:08:12Z</time>
      </trkpt>
      <trkpt lat="48.19508" lon="5.93318">
        <ele>359</ele>
        <time>2024-02-21T11:08:14Z</time>
      </trkpt>
      <trkpt lat="48.19499" lon="5.93326">
        <ele>359</ele>
        <time>2024-02-21T11:08:16Z</time>
      </trkpt>
      <trkpt lat="48.19481" lon="5.93345">
        <ele>359</ele>
        <time>2024-02-21T11:08:20Z</time>
      </trkpt>
      <trkpt lat="48.19465" lon="5.93364">
        <ele>359.1</ele>
        <time>2024-02-21T11:08:24Z</time>
      </trkpt>
      <trkpt lat="48.19448" lon="5.93383">
        <ele>359.2</ele>
        <time>2024-02-21T11:08:28Z</time>
      </trkpt>
      <trkpt lat="48.1944" lon="5.93392">
        <ele>359.2</ele>
        <time>2024-02-21T11:08:30Z</time>
      </trkpt>
      <trkpt lat="48.19433" lon="5.93401">
        <ele>359.2</ele>
        <time>2024-02-21T11:08:32Z</time>
      </trkpt>
      <trkpt lat="48.19423" lon="5.93414">
        <ele>359.2</ele>
        <time>2024-02-21T11:08:36Z</time>
      </trkpt>
      <trkpt lat="48.19421" lon="5.93413">
        <ele>359.2</ele>
        <time>2024-02-21T11:08:38Z</time>
      </trkpt>
      <trkpt lat="48.19423" lon="5.93409">
        <ele>359.2</ele>
        <time>2024-02-21T11:08:41Z</time>
      </trkpt>
      <trkpt lat="48.19441" lon="5.93396">
        <ele>359.2</ele>
        <time>2024-02-21T11:08:54Z</time>
      </trkpt>
      <trkpt lat="48.1946" lon="5.93394">
        <ele>358.3</ele>
        <time>2024-02-21T11:09:02Z</time>
      </trkpt>
      <trkpt lat="48.19478" lon="5.9339">
        <ele>358.2</ele>
        <time>2024-02-21T11:09:10Z</time>
      </trkpt>
      <trkpt lat="48.19497" lon="5.93393">
        <ele>358.4</ele>
        <time>2024-02-21T11:09:18Z</time>
      </trkpt>
      <trkpt lat="48.19515" lon="5.93403">
        <ele>358.6</ele>
        <time>2024-02-21T11:09:25Z</time>
      </trkpt>
      <trkpt lat="48.19532" lon="5.93416">
        <ele>358.8</ele>
        <time>2024-02-21T11:09:32Z</time>
      </trkpt>
      <trkpt lat="48.19543" lon="5.93427">
        <ele>359</ele>
        <time>2024-02-21T11:09:42Z</time>
      </trkpt>
      <trkpt lat="48.19543" lon="5.93418">
        <ele>359</ele>
        <time>2024-02-21T11:09:50Z</time>
      </trkpt>
      <trkpt lat="48.19554" lon="5.93396">
        <ele>359</ele>
        <time>2024-02-21T11:09:55Z</time>
      </trkpt>
      <trkpt lat="48.19555" lon="5.93389">
        <ele>359</ele>
        <time>2024-02-21T11:09:56Z</time>
      </trkpt>
      <trkpt lat="48.19555" lon="5.93374">
        <ele>358.9</ele>
        <time>2024-02-21T11:09:58Z</time>
      </trkpt>
      <trkpt lat="48.19549" lon="5.93354">
        <ele>358.9</ele>
        <time>2024-02-21T11:10:01Z</time>
      </trkpt>
      <trkpt lat="48.19543" lon="5.93342">
        <ele>358.9</ele>
        <time>2024-02-21T11:10:03Z</time>
      </trkpt>
      <trkpt lat="48.19531" lon="5.93329">
        <ele>358.9</ele>
        <time>2024-02-21T11:10:06Z</time>
      </trkpt>
      <trkpt lat="48.19522" lon="5.93323">
        <ele>358.9</ele>
        <time>2024-02-21T11:10:08Z</time>
      </trkpt>
      <trkpt lat="48.19513" lon="5.93321">
        <ele>358.9</ele>
        <time>2024-02-21T11:10:10Z</time>
      </trkpt>
      <trkpt lat="48.19504" lon="5.93323">
        <ele>359</ele>
        <time>2024-02-21T11:10:12Z</time>
      </trkpt>
      <trkpt lat="48.19496" lon="5.9333">
        <ele>359</ele>
        <time>2024-02-21T11:10:14Z</time>
      </trkpt>
      <trkpt lat="48.1948" lon="5.93349">
        <ele>359.1</ele>
        <time>2024-02-21T11:10:18Z</time>
      </trkpt>
      <trkpt lat="48.19465" lon="5.93368">
        <ele>359.2</ele>
        <time>2024-02-21T11:10:22Z</time>
      </trkpt>
      <trkpt lat="48.19449" lon="5.93388">
        <ele>359.2</ele>
        <time>2024-02-21T11:10:26Z</time>
      </trkpt>
      <trkpt lat="48.19434" lon="5.93407">
        <ele>359.3</ele>
        <time>2024-02-21T11:10:30Z</time>
      </trkpt>
      <trkpt lat="48.19431" lon="5.93413">
        <ele>359.3</ele>
        <time>2024-02-21T11:10:31Z</time>
      </trkpt>
      <trkpt lat="48.19427" lon="5.93427">
        <ele>359.3</ele>
        <time>2024-02-21T11:10:33Z</time>
      </trkpt>
      <trkpt lat="48.19426" lon="5.93442">
        <ele>359.3</ele>
        <time>2024-02-21T11:10:35Z</time>
      </trkpt>
      <trkpt lat="48.19428" lon="5.93456">
        <ele>359.3</ele>
        <time>2024-02-21T11:10:37Z</time>
      </trkpt>
      <trkpt lat="48.19433" lon="5.93469">
        <ele>359.3</ele>
        <time>2024-02-21T11:10:39Z</time>
      </trkpt>
      <trkpt lat="48.19443" lon="5.93484">
        <ele>359.3</ele>
        <time>2024-02-21T11:10:42Z</time>
      </trkpt>
      <trkpt lat="48.19451" lon="5.93492">
        <ele>359.3</ele>
        <time>2024-02-21T11:10:44Z</time>
      </trkpt>
      <trkpt lat="48.19461" lon="5.93496">
        <ele>359.3</ele>
        <time>2024-02-21T11:10:46Z</time>
      </trkpt>
      <trkpt lat="48.19472" lon="5.93496">
        <ele>359.2</ele>
        <time>2024-02-21T11:10:48Z</time>
      </trkpt>
      <trkpt lat="48.19482" lon="5.9349">
        <ele>359.2</ele>
        <time>2024-02-21T11:10:50Z</time>
      </trkpt>
      <trkpt lat="48.19499" lon="5.93472">
        <ele>359.1</ele>
        <time>2024-02-21T11:10:54Z</time>
      </trkpt>
      <trkpt lat="48.19514" lon="5.93453">
        <ele>359.2</ele>
        <time>2024-02-21T11:10:58Z</time>
      </trkpt>
      <trkpt lat="48.1953" lon="5.93434">
        <ele>359.1</ele>
        <time>2024-02-21T11:11:02Z</time>
      </trkpt>
      <trkpt lat="48.19545" lon="5.93414">
        <ele>359</ele>
        <time>2024-02-21T11:11:06Z</time>
      </trkpt>
      <trkpt lat="48.19551" lon="5.93404">
        <ele>359</ele>
        <time>2024-02-21T11:11:08Z</time>
      </trkpt>
      <trkpt lat="48.19555" lon="5.93391">
        <ele>359</ele>
        <time>2024-02-21T11:11:10Z</time>
      </trkpt>
      <trkpt lat="48.19556" lon="5.93377">
        <ele>358.9</ele>
        <time>2024-02-21T11:11:12Z</time>
      </trkpt>
      <trkpt lat="48.19555" lon="5.93364">
        <ele>358.9</ele>
        <time>2024-02-21T11:11:14Z</time>
      </trkpt>
      <trkpt lat="48.1955" lon="5.93351">
        <ele>358.9</ele>
        <time>2024-02-21T11:11:16Z</time>
      </trkpt>
      <trkpt lat="48.19544" lon="5.93339">
        <ele>358.9</ele>
        <time>2024-02-21T11:11:18Z</time>
      </trkpt>
      <trkpt lat="48.19537" lon="5.9333">
        <ele>358.9</ele>
        <time>2024-02-21T11:11:20Z</time>
      </trkpt>
      <trkpt lat="48.19528" lon="5.93323">
        <ele>358.9</ele>
        <time>2024-02-21T11:11:22Z</time>
      </trkpt>
      <trkpt lat="48.19519" lon="5.9332">
        <ele>358.9</ele>
        <time>2024-02-21T11:11:24Z</time>
      </trkpt>
      <trkpt lat="48.19509" lon="5.9332">
        <ele>359</ele>
        <time>2024-02-21T11:11:26Z</time>
      </trkpt>
      <trkpt lat="48.195" lon="5.93326">
        <ele>359</ele>
        <time>2024-02-21T11:11:28Z</time>
      </trkpt>
      <trkpt lat="48.19485" lon="5.93344">
        <ele>359.1</ele>
        <time>2024-02-21T11:11:32Z</time>
      </trkpt>
      <trkpt lat="48.19469" lon="5.93364">
        <ele>359.2</ele>
        <time>2024-02-21T11:11:36Z</time>
      </trkpt>
      <trkpt lat="48.19454" lon="5.93383">
        <ele>359.2</ele>
        <time>2024-02-21T11:11:40Z</time>
      </trkpt>
      <trkpt lat="48.19438" lon="5.93402">
        <ele>359.3</ele>
        <time>2024-02-21T11:11:44Z</time>
      </trkpt>
      <trkpt lat="48.19431" lon="5.93413">
        <ele>359.3</ele>
        <time>2024-02-21T11:11:46Z</time>
      </trkpt>
      <trkpt lat="48.19427" lon="5.93427">
        <ele>359.3</ele>
        <time>2024-02-21T11:11:48Z</time>
      </trkpt>
      <trkpt lat="48.19427" lon="5.93441">
        <ele>359.3</ele>
        <time>2024-02-21T11:11:50Z</time>
      </trkpt>
      <trkpt lat="48.19429" lon="5.93455">
        <ele>359.3</ele>
        <time>2024-02-21T11:11:52Z</time>
      </trkpt>
      <trkpt lat="48.19436" lon="5.93473">
        <ele>359.3</ele>
        <time>2024-02-21T11:11:55Z</time>
      </trkpt>
      <trkpt lat="48.19443" lon="5.93483">
        <ele>359.3</ele>
        <time>2024-02-21T11:11:57Z</time>
      </trkpt>
      <trkpt lat="48.19451" lon="5.93491">
        <ele>359.3</ele>
        <time>2024-02-21T11:11:59Z</time>
      </trkpt>
      <trkpt lat="48.1946" lon="5.93495">
        <ele>359.3</ele>
        <time>2024-02-21T11:12:01Z</time>
      </trkpt>
      <trkpt lat="48.1947" lon="5.93494">
        <ele>359.2</ele>
        <time>2024-02-21T11:12:03Z</time>
      </trkpt>
      <trkpt lat="48.1948" lon="5.93488">
        <ele>359.2</ele>
        <time>2024-02-21T11:12:05Z</time>
      </trkpt>
      <trkpt lat="48.19496" lon="5.93471">
        <ele>359.1</ele>
        <time>2024-02-21T11:12:09Z</time>
      </trkpt>
      <trkpt lat="48.19513" lon="5.93452">
        <ele>359.2</ele>
        <time>2024-02-21T11:12:13Z</time>
      </trkpt>
      <trkpt lat="48.19529" lon="5.93433">
        <ele>359.1</ele>
        <time>2024-02-21T11:12:17Z</time>
      </trkpt>
      <trkpt lat="48.19544" lon="5.93414">
        <ele>359</ele>
        <time>2024-02-21T11:12:21Z</time>
      </trkpt>
      <trkpt lat="48.19551" lon="5.93404">
        <ele>359</ele>
        <time>2024-02-21T11:12:23Z</time>
      </trkpt>
      <trkpt lat="48.19556" lon="5.93392">
        <ele>359</ele>
        <time>2024-02-21T11:12:25Z</time>
      </trkpt>
      <trkpt lat="48.19557" lon="5.93379">
        <ele>358.9</ele>
        <time>2024-02-21T11:12:27Z</time>
      </trkpt>
      <trkpt lat="48.19555" lon="5.93365">
        <ele>358.9</ele>
        <time>2024-02-21T11:12:29Z</time>
      </trkpt>
      <trkpt lat="48.19551" lon="5.93352">
        <ele>358.9</ele>
        <time>2024-02-21T11:12:31Z</time>
      </trkpt>
      <trkpt lat="48.19545" lon="5.93341">
        <ele>358.9</ele>
        <time>2024-02-21T11:12:33Z</time>
      </trkpt>
      <trkpt lat="48.19537" lon="5.93332">
        <ele>358.9</ele>
        <time>2024-02-21T11:12:35Z</time>
      </trkpt>
      <trkpt lat="48.19529" lon="5.93325">
        <ele>358.9</ele>
        <time>2024-02-21T11:12:37Z</time>
      </trkpt>
      <trkpt lat="48.1952" lon="5.93321">
        <ele>358.9</ele>
        <time>2024-02-21T11:12:39Z</time>
      </trkpt>
      <trkpt lat="48.19511" lon="5.93321">
        <ele>359</ele>
        <time>2024-02-21T11:12:41Z</time>
      </trkpt>
      <trkpt lat="48.19502" lon="5.93325">
        <ele>359</ele>
        <time>2024-02-21T11:12:43Z</time>
      </trkpt>
      <trkpt lat="48.19485" lon="5.93343">
        <ele>359</ele>
        <time>2024-02-21T11:12:47Z</time>
      </trkpt>
      <trkpt lat="48.19469" lon="5.93364">
        <ele>359.1</ele>
        <time>2024-02-21T11:12:51Z</time>
      </trkpt>
      <trkpt lat="48.19453" lon="5.93384">
        <ele>359.2</ele>
        <time>2024-02-21T11:12:55Z</time>
      </trkpt>
      <trkpt lat="48.1944" lon="5.934">
        <ele>359.2</ele>
        <time>2024-02-21T11:12:58Z</time>
      </trkpt>
      <trkpt lat="48.1943" lon="5.93413">
        <ele>359.2</ele>
        <time>2024-02-21T11:13:01Z</time>
      </trkpt>
      <trkpt lat="48.19422" lon="5.93421">
        <ele>359.2</ele>
        <time>2024-02-21T11:13:04Z</time>
      </trkpt>
      <trkpt lat="48.19419" lon="5.93418">
        <ele>359.2</ele>
        <time>2024-02-21T11:13:06Z</time>
      </trkpt>
      <trkpt lat="48.19431" lon="5.93398">
        <ele>359.3</ele>
        <time>2024-02-21T11:13:16Z</time>
      </trkpt>
      <trkpt lat="48.19435" lon="5.93396">
        <ele>359.3</ele>
        <time>2024-02-21T11:13:20Z</time>
      </trkpt>
      <trkpt lat="48.19437" lon="5.93398">
        <ele>359.3</ele>
        <time>2024-02-21T11:13:22Z</time>
      </trkpt>
      <trkpt lat="48.19426" lon="5.93417">
        <ele>359.3</ele>
        <time>2024-02-21T11:13:41Z</time>
      </trkpt>
      <trkpt lat="48.19425" lon="5.93425">
        <ele>359.3</ele>
        <time>2024-02-21T11:13:49Z</time>
      </trkpt>
      <trkpt lat="48.19429" lon="5.93453">
        <ele>359.3</ele>
        <time>2024-02-21T11:14:00Z</time>
      </trkpt>
      <trkpt lat="48.1944" lon="5.93474">
        <ele>359.3</ele>
        <time>2024-02-21T11:14:10Z</time>
      </trkpt>
      <trkpt lat="48.19454" lon="5.93491">
        <ele>359.3</ele>
        <time>2024-02-21T11:14:18Z</time>
      </trkpt>
      <trkpt lat="48.19473" lon="5.93495">
        <ele>359.2</ele>
        <time>2024-02-21T11:14:26Z</time>
      </trkpt>
      <trkpt lat="48.1949" lon="5.93481">
        <ele>359.2</ele>
        <time>2024-02-21T11:14:35Z</time>
      </trkpt>
      <trkpt lat="48.19506" lon="5.93463">
        <ele>359.1</ele>
        <time>2024-02-21T11:14:44Z</time>
      </trkpt>
      <trkpt lat="48.19521" lon="5.93446">
        <ele>359.2</ele>
        <time>2024-02-21T11:14:52Z</time>
      </trkpt>
      <trkpt lat="48.19535" lon="5.93428">
        <ele>359.1</ele>
        <time>2024-02-21T11:15:00Z</time>
      </trkpt>
      <trkpt lat="48.19541" lon="5.93422">
        <ele>359</ele>
        <time>2024-02-21T11:15:03Z</time>
      </trkpt>
      <trkpt lat="48.19555" lon="5.934">
        <ele>359</ele>
        <time>2024-02-21T11:15:08Z</time>
      </trkpt>
      <trkpt lat="48.19557" lon="5.93386">
        <ele>359</ele>
        <time>2024-02-21T11:15:10Z</time>
      </trkpt>
      <trkpt lat="48.19557" lon="5.93372">
        <ele>358.9</ele>
        <time>2024-02-21T11:15:12Z</time>
      </trkpt>
      <trkpt lat="48.19554" lon="5.93359">
        <ele>358.9</ele>
        <time>2024-02-21T11:15:14Z</time>
      </trkpt>
      <trkpt lat="48.19546" lon="5.93341">
        <ele>358.9</ele>
        <time>2024-02-21T11:15:17Z</time>
      </trkpt>
      <trkpt lat="48.19539" lon="5.93331">
        <ele>358.9</ele>
        <time>2024-02-21T11:15:19Z</time>
      </trkpt>
      <trkpt lat="48.19531" lon="5.93323">
        <ele>358.9</ele>
        <time>2024-02-21T11:15:21Z</time>
      </trkpt>
      <trkpt lat="48.19523" lon="5.93319">
        <ele>358.9</ele>
        <time>2024-02-21T11:15:23Z</time>
      </trkpt>
      <trkpt lat="48.19514" lon="5.93318">
        <ele>358.9</ele>
        <time>2024-02-21T11:15:25Z</time>
      </trkpt>
      <trkpt lat="48.19505" lon="5.93322">
        <ele>359</ele>
        <time>2024-02-21T11:15:27Z</time>
      </trkpt>
      <trkpt lat="48.19496" lon="5.9333">
        <ele>359</ele>
        <time>2024-02-21T11:15:29Z</time>
      </trkpt>
      <trkpt lat="48.19481" lon="5.93348">
        <ele>359.1</ele>
        <time>2024-02-21T11:15:33Z</time>
      </trkpt>
      <trkpt lat="48.19466" lon="5.93366">
        <ele>359.2</ele>
        <time>2024-02-21T11:15:37Z</time>
      </trkpt>
      <trkpt lat="48.19451" lon="5.93383">
        <ele>359.2</ele>
        <time>2024-02-21T11:15:41Z</time>
      </trkpt>
      <trkpt lat="48.19437" lon="5.93399">
        <ele>359.3</ele>
        <time>2024-02-21T11:15:45Z</time>
      </trkpt>
      <trkpt lat="48.1943" lon="5.93409">
        <ele>359.3</ele>
        <time>2024-02-21T11:15:47Z</time>
      </trkpt>
      <trkpt lat="48.19426" lon="5.93422">
        <ele>359.3</ele>
        <time>2024-02-21T11:15:49Z</time>
      </trkpt>
      <trkpt lat="48.19424" lon="5.93435">
        <ele>359.3</ele>
        <time>2024-02-21T11:15:51Z</time>
      </trkpt>
      <trkpt lat="48.19425" lon="5.93449">
        <ele>359.3</ele>
        <time>2024-02-21T11:15:53Z</time>
      </trkpt>
      <trkpt lat="48.19428" lon="5.93462">
        <ele>359.3</ele>
        <time>2024-02-21T11:15:55Z</time>
      </trkpt>
      <trkpt lat="48.19433" lon="5.93474">
        <ele>359.3</ele>
        <time>2024-02-21T11:15:57Z</time>
      </trkpt>
      <trkpt lat="48.19447" lon="5.93493">
        <ele>359.3</ele>
        <time>2024-02-21T11:16:01Z</time>
      </trkpt>
      <trkpt lat="48.19456" lon="5.93499">
        <ele>359.3</ele>
        <time>2024-02-21T11:16:03Z</time>
      </trkpt>
      <trkpt lat="48.19466" lon="5.93501">
        <ele>359.2</ele>
        <time>2024-02-21T11:16:05Z</time>
      </trkpt>
      <trkpt lat="48.19476" lon="5.93499">
        <ele>359.2</ele>
        <time>2024-02-21T11:16:07Z</time>
      </trkpt>
      <trkpt lat="48.19486" lon="5.93493">
        <ele>359.2</ele>
        <time>2024-02-21T11:16:09Z</time>
      </trkpt>
      <trkpt lat="48.19501" lon="5.93475">
        <ele>359.1</ele>
        <time>2024-02-21T11:16:13Z</time>
      </trkpt>
      <trkpt lat="48.19515" lon="5.93457">
        <ele>359.2</ele>
        <time>2024-02-21T11:16:17Z</time>
      </trkpt>
      <trkpt lat="48.19529" lon="5.93439">
        <ele>359.1</ele>
        <time>2024-02-21T11:16:21Z</time>
      </trkpt>
      <trkpt lat="48.19544" lon="5.93421">
        <ele>359</ele>
        <time>2024-02-21T11:16:25Z</time>
      </trkpt>
      <trkpt lat="48.19555" lon="5.934">
        <ele>359</ele>
        <time>2024-02-21T11:16:29Z</time>
      </trkpt>
      <trkpt lat="48.19559" lon="5.93374">
        <ele>358.9</ele>
        <time>2024-02-21T11:16:33Z</time>
      </trkpt>
      <trkpt lat="48.19551" lon="5.93347">
        <ele>358.9</ele>
        <time>2024-02-21T11:16:37Z</time>
      </trkpt>
      <trkpt lat="48.19548" lon="5.93341">
        <ele>358.9</ele>
        <time>2024-02-21T11:16:38Z</time>
      </trkpt>
      <trkpt lat="48.19541" lon="5.9333">
        <ele>358.9</ele>
        <time>2024-02-21T11:16:40Z</time>
      </trkpt>
      <trkpt lat="48.19533" lon="5.93322">
        <ele>358.9</ele>
        <time>2024-02-21T11:16:42Z</time>
      </trkpt>
      <trkpt lat="48.19525" lon="5.93318">
        <ele>358.9</ele>
        <time>2024-02-21T11:16:44Z</time>
      </trkpt>
      <trkpt lat="48.19516" lon="5.93317">
        <ele>358.9</ele>
        <time>2024-02-21T11:16:46Z</time>
      </trkpt>
      <trkpt lat="48.19507" lon="5.9332">
        <ele>359</ele>
        <time>2024-02-21T11:16:48Z</time>
      </trkpt>
      <trkpt lat="48.19498" lon="5.93327">
        <ele>359</ele>
        <time>2024-02-21T11:16:50Z</time>
      </trkpt>
      <trkpt lat="48.19481" lon="5.93347">
        <ele>359</ele>
        <time>2024-02-21T11:16:54Z</time>
      </trkpt>
      <trkpt lat="48.19465" lon="5.93366">
        <ele>359.1</ele>
        <time>2024-02-21T11:16:58Z</time>
      </trkpt>
      <trkpt lat="48.19449" lon="5.93387">
        <ele>359.2</ele>
        <time>2024-02-21T11:17:02Z</time>
      </trkpt>
      <trkpt lat="48.19441" lon="5.93397">
        <ele>359.2</ele>
        <time>2024-02-21T11:17:04Z</time>
      </trkpt>
      <trkpt lat="48.19434" lon="5.93406">
        <ele>359.2</ele>
        <time>2024-02-21T11:17:06Z</time>
      </trkpt>
      <trkpt lat="48.19425" lon="5.93417">
        <ele>359.2</ele>
        <time>2024-02-21T11:17:09Z</time>
      </trkpt>
      <trkpt lat="48.1942" lon="5.93416">
        <ele>359.2</ele>
        <time>2024-02-21T11:17:11Z</time>
      </trkpt>
      <trkpt lat="48.19423" lon="5.93408">
        <ele>359.2</ele>
        <time>2024-02-21T11:17:15Z</time>
      </trkpt>
      <trkpt lat="48.19439" lon="5.93393">
        <ele>359.3</ele>
        <time>2024-02-21T11:17:34Z</time>
      </trkpt>
      <trkpt lat="48.1945" lon="5.93381">
        <ele>359.3</ele>
        <time>2024-02-21T11:17:53Z</time>
      </trkpt>
      <trkpt lat="48.19451" lon="5.93385">
        <ele>359.3</ele>
        <time>2024-02-21T11:17:57Z</time>
      </trkpt>
      <trkpt lat="48.1945" lon="5.93386">
        <ele>359.3</ele>
        <time>2024-02-21T11:17:58Z</time>
      </trkpt>
      <trkpt lat="48.19447" lon="5.93386">
        <ele>359.3</ele>
        <time>2024-02-21T11:18:01Z</time>
      </trkpt>
      <trkpt lat="48.19446" lon="5.93389">
        <ele>359.3</ele>
        <time>2024-02-21T11:18:05Z</time>
      </trkpt>
      <trkpt lat="48.19443" lon="5.93394">
        <ele>359.3</ele>
        <time>2024-02-21T11:18:09Z</time>
      </trkpt>
      <trkpt lat="48.19441" lon="5.93397">
        <ele>359.3</ele>
        <time>2024-02-21T11:18:12Z</time>
      </trkpt>
      <trkpt lat="48.19433" lon="5.93421">
        <ele>359.3</ele>
        <time>2024-02-21T11:18:17Z</time>
      </trkpt>
      <trkpt lat="48.19431" lon="5.93448">
        <ele>359.3</ele>
        <time>2024-02-21T11:18:20Z</time>
      </trkpt>
      <trkpt lat="48.19435" lon="5.93464">
        <ele>359.3</ele>
        <time>2024-02-21T11:18:22Z</time>
      </trkpt>
      <trkpt lat="48.19441" lon="5.93477">
        <ele>359.3</ele>
        <time>2024-02-21T11:18:24Z</time>
      </trkpt>
      <trkpt lat="48.1945" lon="5.93488">
        <ele>359.3</ele>
        <time>2024-02-21T11:18:26Z</time>
      </trkpt>
      <trkpt lat="48.1946" lon="5.93494">
        <ele>359.3</ele>
        <time>2024-02-21T11:18:28Z</time>
      </trkpt>
      <trkpt lat="48.19472" lon="5.93495">
        <ele>359.2</ele>
        <time>2024-02-21T11:18:30Z</time>
      </trkpt>
      <trkpt lat="48.19483" lon="5.9349">
        <ele>359.2</ele>
        <time>2024-02-21T11:18:32Z</time>
      </trkpt>
      <trkpt lat="48.19501" lon="5.9347">
        <ele>359.1</ele>
        <time>2024-02-21T11:18:36Z</time>
      </trkpt>
      <trkpt lat="48.19519" lon="5.93449">
        <ele>359.2</ele>
        <time>2024-02-21T11:18:40Z</time>
      </trkpt>
      <trkpt lat="48.19537" lon="5.93428">
        <ele>359.1</ele>
        <time>2024-02-21T11:18:44Z</time>
      </trkpt>
      <trkpt lat="48.19553" lon="5.93406">
        <ele>359</ele>
        <time>2024-02-21T11:18:48Z</time>
      </trkpt>
      <trkpt lat="48.19557" lon="5.93392">
        <ele>359</ele>
        <time>2024-02-21T11:18:50Z</time>
      </trkpt>
      <trkpt lat="48.19558" lon="5.93375">
        <ele>358.9</ele>
        <time>2024-02-21T11:18:52Z</time>
      </trkpt>
      <trkpt lat="48.19554" lon="5.93359">
        <ele>358.9</ele>
        <time>2024-02-21T11:18:54Z</time>
      </trkpt>
      <trkpt lat="48.19548" lon="5.93345">
        <ele>358.9</ele>
        <time>2024-02-21T11:18:56Z</time>
      </trkpt>
      <trkpt lat="48.1954" lon="5.93333">
        <ele>358.9</ele>
        <time>2024-02-21T11:18:58Z</time>
      </trkpt>
      <trkpt lat="48.1953" lon="5.93325">
        <ele>358.9</ele>
        <time>2024-02-21T11:19:00Z</time>
      </trkpt>
      <trkpt lat="48.19519" lon="5.93321">
        <ele>358.9</ele>
        <time>2024-02-21T11:19:02Z</time>
      </trkpt>
      <trkpt lat="48.19509" lon="5.93322">
        <ele>359</ele>
        <time>2024-02-21T11:19:04Z</time>
      </trkpt>
      <trkpt lat="48.19499" lon="5.93329">
        <ele>359</ele>
        <time>2024-02-21T11:19:06Z</time>
      </trkpt>
      <trkpt lat="48.19484" lon="5.93346">
        <ele>359</ele>
        <time>2024-02-21T11:19:09Z</time>
      </trkpt>
      <trkpt lat="48.1947" lon="5.93364">
        <ele>359.1</ele>
        <time>2024-02-21T11:19:12Z</time>
      </trkpt>
      <trkpt lat="48.19455" lon="5.93383">
        <ele>359.2</ele>
        <time>2024-02-21T11:19:15Z</time>
      </trkpt>
      <trkpt lat="48.19442" lon="5.93401">
        <ele>359.2</ele>
        <time>2024-02-21T11:19:18Z</time>
      </trkpt>
      <trkpt lat="48.19431" lon="5.93415">
        <ele>359.2</ele>
        <time>2024-02-21T11:19:21Z</time>
      </trkpt>
      <trkpt lat="48.19425" lon="5.93417">
        <ele>359.2</ele>
        <time>2024-02-21T11:19:23Z</time>
      </trkpt>
      <trkpt lat="48.19424" lon="5.93407">
        <ele>359.2</ele>
        <time>2024-02-21T11:19:26Z</time>
      </trkpt>
      <trkpt lat="48.19434" lon="5.93401">
        <ele>359.3</ele>
        <time>2024-02-21T11:19:33Z</time>
      </trkpt>
      <trkpt lat="48.19433" lon="5.93406">
        <ele>359.3</ele>
        <time>2024-02-21T11:19:36Z</time>
      </trkpt>
      <trkpt lat="48.19428" lon="5.93409">
        <ele>359.3</ele>
        <time>2024-02-21T11:19:40Z</time>
      </trkpt>
      <trkpt lat="48.19425" lon="5.93404">
        <ele>359.3</ele>
        <time>2024-02-21T11:19:46Z</time>
      </trkpt>
      <trkpt lat="48.19427" lon="5.93403">
        <ele>359.3</ele>
        <time>2024-02-21T11:19:50Z</time>
      </trkpt>
      <trkpt lat="48.19434" lon="5.93405">
        <ele>359.2</ele>
        <time>2024-02-21T11:20:00Z</time>
      </trkpt>
      <trkpt lat="48.19434" lon="5.93402">
        <ele>359.2</ele>
        <time>2024-02-21T11:20:02Z</time>
      </trkpt>
      <trkpt lat="48.19435" lon="5.93399">
        <ele>359.2</ele>
        <time>2024-02-21T11:20:04Z</time>
      </trkpt>
      <trkpt lat="48.19451" lon="5.93385">
        <ele>359.2</ele>
        <time>2024-02-21T11:20:21Z</time>
      </trkpt>
      <trkpt lat="48.19466" lon="5.9337">
        <ele>359.2</ele>
        <time>2024-02-21T11:20:36Z</time>
      </trkpt>
      <trkpt lat="48.19467" lon="5.93369">
        <ele>359.2</ele>
        <time>2024-02-21T11:20:37Z</time>
      </trkpt>
      <trkpt lat="48.19465" lon="5.93366">
        <ele>359.2</ele>
        <time>2024-02-21T11:22:09Z</time>
      </trkpt>
      <trkpt lat="48.19477" lon="5.93346">
        <ele>359.1</ele>
        <time>2024-02-21T11:22:25Z</time>
      </trkpt>
      <trkpt lat="48.19493" lon="5.93331">
        <ele>359</ele>
        <time>2024-02-21T11:22:36Z</time>
      </trkpt>
      <trkpt lat="48.1951" lon="5.93316">
        <ele>359</ele>
        <time>2024-02-21T11:22:46Z</time>
      </trkpt>
      <trkpt lat="48.1952" lon="5.93293">
        <ele>359.9</ele>
        <time>2024-02-21T11:22:56Z</time>
      </trkpt>
      <trkpt lat="48.19521" lon="5.93287">
        <ele>360.9</ele>
        <time>2024-02-21T11:23:00Z</time>
      </trkpt>
      <trkpt lat="48.19524" lon="5.93286">
        <ele>360.8</ele>
        <time>2024-02-21T11:23:02Z</time>
      </trkpt>
      <trkpt lat="48.19541" lon="5.933">
        <ele>360.3</ele>
        <time>2024-02-21T11:23:13Z</time>
      </trkpt>
      <trkpt lat="48.19556" lon="5.93318">
        <ele>359.7</ele>
        <time>2024-02-21T11:23:23Z</time>
      </trkpt>
      <trkpt lat="48.19566" lon="5.93341">
        <ele>359.1</ele>
        <time>2024-02-21T11:23:32Z</time>
      </trkpt>
      <trkpt lat="48.19575" lon="5.93367">
        <ele>358.6</ele>
        <time>2024-02-21T11:23:41Z</time>
      </trkpt>
      <trkpt lat="48.1958" lon="5.93394">
        <ele>358</ele>
        <time>2024-02-21T11:23:49Z</time>
      </trkpt>
      <trkpt lat="48.19582" lon="5.93424">
        <ele>357.5</ele>
        <time>2024-02-21T11:23:57Z</time>
      </trkpt>
      <trkpt lat="48.19582" lon="5.9345">
        <ele>357</ele>
        <time>2024-02-21T11:24:05Z</time>
      </trkpt>
      <trkpt lat="48.19595" lon="5.93473">
        <ele>356.5</ele>
        <time>2024-02-21T11:24:14Z</time>
      </trkpt>
      <trkpt lat="48.19606" lon="5.93498">
        <ele>356</ele>
        <time>2024-02-21T11:24:23Z</time>
      </trkpt>
      <trkpt lat="48.19615" lon="5.93523">
        <ele>355.4</ele>
        <time>2024-02-21T11:24:31Z</time>
      </trkpt>
      <trkpt lat="48.1961" lon="5.93548">
        <ele>355.4</ele>
        <time>2024-02-21T11:24:38Z</time>
      </trkpt>
      <trkpt lat="48.19594" lon="5.93567">
        <ele>355.5</ele>
        <time>2024-02-21T11:24:45Z</time>
      </trkpt>
      <trkpt lat="48.19578" lon="5.93585">
        <ele>356.3</ele>
        <time>2024-02-21T11:24:53Z</time>
      </trkpt>
      <trkpt lat="48.19564" lon="5.93602">
        <ele>357.1</ele>
        <time>2024-02-21T11:25:01Z</time>
      </trkpt>
      <trkpt lat="48.19549" lon="5.93618">
        <ele>357.4</ele>
        <time>2024-02-21T11:25:08Z</time>
      </trkpt>
      <trkpt lat="48.19532" lon="5.93631">
        <ele>357.9</ele>
        <time>2024-02-21T11:25:16Z</time>
      </trkpt>
      <trkpt lat="48.19513" lon="5.93638">
        <ele>359.1</ele>
        <time>2024-02-21T11:25:25Z</time>
      </trkpt>
      <trkpt lat="48.19497" lon="5.93632">
        <ele>360</ele>
        <time>2024-02-21T11:25:32Z</time>
      </trkpt>
      <trkpt lat="48.19484" lon="5.93608">
        <ele>360.2</ele>
        <time>2024-02-21T11:25:40Z</time>
      </trkpt>
      <trkpt lat="48.19473" lon="5.93583">
        <ele>359.9</ele>
        <time>2024-02-21T11:25:48Z</time>
      </trkpt>
      <trkpt lat="48.19461" lon="5.93561">
        <ele>358.6</ele>
        <time>2024-02-21T11:25:56Z</time>
      </trkpt>
      <trkpt lat="48.19445" lon="5.93544">
        <ele>358.8</ele>
        <time>2024-02-21T11:26:04Z</time>
      </trkpt>
      <trkpt lat="48.19431" lon="5.93524">
        <ele>359</ele>
        <time>2024-02-21T11:26:11Z</time>
      </trkpt>
      <trkpt lat="48.19417" lon="5.93506">
        <ele>359.2</ele>
        <time>2024-02-21T11:26:18Z</time>
      </trkpt>
      <trkpt lat="48.19407" lon="5.93481">
        <ele>359.4</ele>
        <time>2024-02-21T11:26:26Z</time>
      </trkpt>
      <trkpt lat="48.19401" lon="5.93453">
        <ele>359.6</ele>
        <time>2024-02-21T11:26:34Z</time>
      </trkpt>
      <trkpt lat="48.194" lon="5.93426">
        <ele>359.7</ele>
        <time>2024-02-21T11:26:42Z</time>
      </trkpt>
      <trkpt lat="48.19405" lon="5.934">
        <ele>359.9</ele>
        <time>2024-02-21T11:26:50Z</time>
      </trkpt>
      <trkpt lat="48.19414" lon="5.93382">
        <ele>360.1</ele>
        <time>2024-02-21T11:26:57Z</time>
      </trkpt>
      <trkpt lat="48.19413" lon="5.93379">
        <ele>360.1</ele>
        <time>2024-02-21T11:26:59Z</time>
      </trkpt>
      <trkpt lat="48.19407" lon="5.93407">
        <ele>359.9</ele>
        <time>2024-02-21T11:27:08Z</time>
      </trkpt>
      <trkpt lat="48.19406" lon="5.93437">
        <ele>359.6</ele>
        <time>2024-02-21T11:27:16Z</time>
      </trkpt>
      <trkpt lat="48.19409" lon="5.93466">
        <ele>359.4</ele>
        <time>2024-02-21T11:27:24Z</time>
      </trkpt>
      <trkpt lat="48.19416" lon="5.93492">
        <ele>359.2</ele>
        <time>2024-02-21T11:27:32Z</time>
      </trkpt>
      <trkpt lat="48.19429" lon="5.93511">
        <ele>359</ele>
        <time>2024-02-21T11:27:39Z</time>
      </trkpt>
      <trkpt lat="48.19446" lon="5.93527">
        <ele>358.8</ele>
        <time>2024-02-21T11:27:47Z</time>
      </trkpt>
      <trkpt lat="48.19465" lon="5.93536">
        <ele>358.6</ele>
        <time>2024-02-21T11:27:55Z</time>
      </trkpt>
      <trkpt lat="48.19483" lon="5.93537">
        <ele>358.4</ele>
        <time>2024-02-21T11:28:02Z</time>
      </trkpt>
      <trkpt lat="48.19502" lon="5.93532">
        <ele>357.5</ele>
        <time>2024-02-21T11:28:09Z</time>
      </trkpt>
      <trkpt lat="48.19518" lon="5.93517">
        <ele>357.2</ele>
        <time>2024-02-21T11:28:16Z</time>
      </trkpt>
      <trkpt lat="48.19532" lon="5.93499">
        <ele>357.3</ele>
        <time>2024-02-21T11:28:23Z</time>
      </trkpt>
      <trkpt lat="48.19548" lon="5.93482">
        <ele>357.7</ele>
        <time>2024-02-21T11:28:30Z</time>
      </trkpt>
      <trkpt lat="48.19562" lon="5.93464">
        <ele>357.9</ele>
        <time>2024-02-21T11:28:37Z</time>
      </trkpt>
      <trkpt lat="48.19562" lon="5.93438">
        <ele>358.4</ele>
        <time>2024-02-21T11:28:44Z</time>
      </trkpt>
      <trkpt lat="48.19555" lon="5.9341">
        <ele>359</ele>
        <time>2024-02-21T11:28:50Z</time>
      </trkpt>
      <trkpt lat="48.19554" lon="5.93381">
        <ele>358.9</ele>
        <time>2024-02-21T11:28:57Z</time>
      </trkpt>
      <trkpt lat="48.19551" lon="5.93353">
        <ele>358.9</ele>
        <time>2024-02-21T11:29:05Z</time>
      </trkpt>
      <trkpt lat="48.19539" lon="5.93331">
        <ele>358.9</ele>
        <time>2024-02-21T11:29:13Z</time>
      </trkpt>
      <trkpt lat="48.19521" lon="5.9332">
        <ele>358.9</ele>
        <time>2024-02-21T11:29:21Z</time>
      </trkpt>
      <trkpt lat="48.19503" lon="5.93326">
        <ele>359</ele>
        <time>2024-02-21T11:29:29Z</time>
      </trkpt>
      <trkpt lat="48.19487" lon="5.93344">
        <ele>359</ele>
        <time>2024-02-21T11:29:37Z</time>
      </trkpt>
      <trkpt lat="48.19473" lon="5.93362">
        <ele>359.1</ele>
        <time>2024-02-21T11:29:45Z</time>
      </trkpt>
      <trkpt lat="48.19471" lon="5.93365">
        <ele>359.2</ele>
        <time>2024-02-21T11:29:47Z</time>
      </trkpt>
      <trkpt lat="48.19397" lon="5.93412">
        <ele>365.4</ele>
        <time>2024-02-21T11:31:29Z</time>
      </trkpt>
      <trkpt lat="48.19396" lon="5.93411">
        <ele>365.4</ele>
        <time>2024-02-21T11:31:30Z</time>
      </trkpt>
      <trkpt lat="48.19395" lon="5.9341">
        <ele>365.8</ele>
        <time>2024-02-21T11:31:32Z</time>
      </trkpt>
      <trkpt lat="48.19393" lon="5.93412">
        <ele>366.3</ele>
        <time>2024-02-21T11:31:34Z</time>
      </trkpt>
      <trkpt lat="48.19377" lon="5.93427">
        <ele>368.7</ele>
        <time>2024-02-21T11:31:46Z</time>
      </trkpt>
      <trkpt lat="48.19362" lon="5.93443">
        <ele>370.1</ele>
        <time>2024-02-21T11:31:57Z</time>
      </trkpt>
      <trkpt lat="48.19347" lon="5.93459">
        <ele>371.8</ele>
        <time>2024-02-21T11:32:07Z</time>
      </trkpt>
      <trkpt lat="48.19331" lon="5.93474">
        <ele>373.7</ele>
        <time>2024-02-21T11:32:18Z</time>
      </trkpt>
      <trkpt lat="48.19316" lon="5.93489">
        <ele>375.4</ele>
        <time>2024-02-21T11:32:28Z</time>
      </trkpt>
      <trkpt lat="48.19299" lon="5.93504">
        <ele>376.8</ele>
        <time>2024-02-21T11:32:38Z</time>
      </trkpt>
      <trkpt lat="48.19288" lon="5.93524">
        <ele>378.1</ele>
        <time>2024-02-21T11:32:46Z</time>
      </trkpt>
      <trkpt lat="48.19297" lon="5.93551">
        <ele>377.2</ele>
        <time>2024-02-21T11:32:55Z</time>
      </trkpt>
      <trkpt lat="48.19309" lon="5.93574">
        <ele>376.7</ele>
        <time>2024-02-21T11:33:04Z</time>
      </trkpt>
      <trkpt lat="48.19319" lon="5.93597">
        <ele>376.4</ele>
        <time>2024-02-21T11:33:14Z</time>
      </trkpt>
      <trkpt lat="48.19329" lon="5.93621">
        <ele>375.9</ele>
        <time>2024-02-21T11:33:23Z</time>
      </trkpt>
      <trkpt lat="48.19341" lon="5.93645">
        <ele>375.1</ele>
        <time>2024-02-21T11:33:32Z</time>
      </trkpt>
      <trkpt lat="48.19351" lon="5.93667">
        <ele>374.5</ele>
        <time>2024-02-21T11:33:41Z</time>
      </trkpt>
      <trkpt lat="48.19363" lon="5.93691">
        <ele>373.6</ele>
        <time>2024-02-21T11:33:50Z</time>
      </trkpt>
      <trkpt lat="48.19376" lon="5.93714">
        <ele>372.8</ele>
        <time>2024-02-21T11:33:59Z</time>
      </trkpt>
      <trkpt lat="48.19388" lon="5.93736">
        <ele>372.1</ele>
        <time>2024-02-21T11:34:07Z</time>
      </trkpt>
      <trkpt lat="48.19399" lon="5.93761">
        <ele>371.4</ele>
        <time>2024-02-21T11:34:16Z</time>
      </trkpt>
      <trkpt lat="48.19409" lon="5.93784">
        <ele>370.6</ele>
        <time>2024-02-21T11:34:25Z</time>
      </trkpt>
      <trkpt lat="48.1941" lon="5.93786">
        <ele>370.6</ele>
        <time>2024-02-21T11:34:26Z</time>
      </trkpt>
    </trkseg>
  </trk>
</gpx>